<?xml version="1.0" encoding="UTF-8" standalone="no" ?>
<gpx xmlns="http://www.topografix.com/GPX/1/1" xmlns:xsi="http://www.w3.org/2001/XMLSchema-instance" xsi:schemaLocation="http://www.topografix.com/GPX/1/1 http://www.topografix.com/GPX/1/1/gpx.xsd" version="1.1" creator="VisuGPX - https://www.visugpx.com">
  <metadata>
    <name>Ronde des lacs 2013 78kms</name>
    <desc><![CDATA[Circuit de 66 kms   une boucle pour aller jusqu au lac pavin de 12 kms]]></desc>
  </metadata>
  <wpt lat="45.58241" lon="2.92719">
    <ele>1061.01</ele>
    <name><![CDATA[WPT_0000126]]></name>
    <desc><![CDATA[]]></desc>
    <type><![CDATA[Photo]]></type>
  </wpt>
  <wpt lat="45.57288" lon="2.92335">
    <ele>883.57</ele>
    <name><![CDATA[WPT_0000127]]></name>
    <desc><![CDATA[]]></desc>
    <type><![CDATA[Photo]]></type>
  </wpt>
  <wpt lat="45.56785" lon="2.92867">
    <ele>878.07</ele>
    <name><![CDATA[0000128]]></name>
    <desc><![CDATA[]]></desc>
    <type><![CDATA[Point de navigation]]></type>
  </wpt>
  <wpt lat="45.56785" lon="2.92867">
    <ele>877.55</ele>
    <name><![CDATA[0000129]]></name>
    <desc><![CDATA[]]></desc>
    <type><![CDATA[Photo]]></type>
  </wpt>
  <wpt lat="45.49931" lon="2.88638">
    <ele>1190.59</ele>
    <name><![CDATA[WPT_0000130]]></name>
    <desc><![CDATA[]]></desc>
    <type><![CDATA[Photo]]></type>
  </wpt>
  <wpt lat="45.50934" lon="2.90198">
    <ele>1124.58</ele>
    <name><![CDATA[WPT_0000131]]></name>
    <desc><![CDATA[]]></desc>
    <type><![CDATA[Photo]]></type>
  </wpt>
  <wpt lat="45.50963" lon="2.90292">
    <ele>1113.52</ele>
    <name><![CDATA[WPT_0000132]]></name>
    <desc><![CDATA[]]></desc>
    <type><![CDATA[Photo]]></type>
  </wpt>
  <wpt lat="45.50944" lon="2.90451">
    <ele>1085.66</ele>
    <name><![CDATA[WPT_0000133]]></name>
    <desc><![CDATA[]]></desc>
    <type><![CDATA[Photo]]></type>
  </wpt>
  <trk>
    <name><![CDATA[2013-09-01 07:33]]></name>
    <desc><![CDATA[<h1>OruxMaps</h1><br /><hr align="center" width="480" style="height: 2px; width: 517px"/><h2>Nom: 2013-09-01 07:33</h2><br /><p>Temps de départ: 09/01/2013 07:33</p><p>Temps d'arrivée: 09/01/2013 13:24</p><p>Distance: 72,6 km (05:50)</p><p>Temps déplacement: 04:08</p><p>Vitesse moyenne: 12,4 km/h</p><p>Vitesse moyenne: 17,5 km/h</p><p>Vitess Max.: 53 km/h</p><p>Altitude minimale: 779 m</p><p>Altitude maximale: 1270 m</p><p>Vitesse d'élévation: 624,6 m/h</p><p>Vitesse de descente: -1150,5 m/h</p><p>Gain Altitude: 1835 m</p><p>Perte Altitude: -1766 m</p><p>Temps d'élévation: 02:56</p><p>Temps de descente: 01:32</p><hr align="center" width="480" style="height: 2px; width: 517px"/>]]></desc>
    <trkseg>
      <trkpt lat="45.66745" lon="2.97989">
        <ele>872.46</ele>
        <time>2013-09-01T05:33:09Z</time>
      </trkpt>
      <trkpt lat="45.66774" lon="2.9789">
        <ele>875.5</ele>
        <time>2013-09-01T05:33:36Z</time>
      </trkpt>
      <trkpt lat="45.66813" lon="2.97802">
        <ele>875.51</ele>
        <time>2013-09-01T05:34:03Z</time>
      </trkpt>
      <trkpt lat="45.66837" lon="2.97706">
        <ele>875.51</ele>
        <time>2013-09-01T05:34:30Z</time>
      </trkpt>
      <trkpt lat="45.66808" lon="2.97609">
        <ele>876.51</ele>
        <time>2013-09-01T05:35:06Z</time>
      </trkpt>
      <trkpt lat="45.66785" lon="2.97508">
        <ele>878.74</ele>
        <time>2013-09-01T05:35:40Z</time>
      </trkpt>
      <trkpt lat="45.66785" lon="2.97405">
        <ele>884.64</ele>
        <time>2013-09-01T05:36:00Z</time>
      </trkpt>
      <trkpt lat="45.66777" lon="2.97302">
        <ele>890.81</ele>
        <time>2013-09-01T05:36:28Z</time>
      </trkpt>
      <trkpt lat="45.66783" lon="2.97199">
        <ele>897.29</ele>
        <time>2013-09-01T05:37:04Z</time>
      </trkpt>
      <trkpt lat="45.6677" lon="2.97092">
        <ele>904.13</ele>
        <time>2013-09-01T05:37:33Z</time>
      </trkpt>
      <trkpt lat="45.66799" lon="2.96993">
        <ele>907.5</ele>
        <time>2013-09-01T05:37:54Z</time>
      </trkpt>
      <trkpt lat="45.66803" lon="2.9689">
        <ele>907.51</ele>
        <time>2013-09-01T05:38:12Z</time>
      </trkpt>
      <trkpt lat="45.66795" lon="2.96788">
        <ele>906.13</ele>
        <time>2013-09-01T05:38:39Z</time>
      </trkpt>
      <trkpt lat="45.66801" lon="2.96685">
        <ele>908.24</ele>
        <time>2013-09-01T05:39:02Z</time>
      </trkpt>
      <trkpt lat="45.6674" lon="2.96629">
        <ele>915.32</ele>
        <time>2013-09-01T05:39:21Z</time>
      </trkpt>
      <trkpt lat="45.66695" lon="2.96547">
        <ele>915.51</ele>
        <time>2013-09-01T05:39:50Z</time>
      </trkpt>
      <trkpt lat="45.66758" lon="2.96496">
        <ele>921.25</ele>
        <time>2013-09-01T05:40:17Z</time>
      </trkpt>
      <trkpt lat="45.66796" lon="2.96406">
        <ele>927.14</ele>
        <time>2013-09-01T05:40:50Z</time>
      </trkpt>
      <trkpt lat="45.66828" lon="2.96313">
        <ele>931.26</ele>
        <time>2013-09-01T05:41:18Z</time>
      </trkpt>
      <trkpt lat="45.66867" lon="2.96225">
        <ele>933.48</ele>
        <time>2013-09-01T05:41:44Z</time>
      </trkpt>
      <trkpt lat="45.66905" lon="2.96137">
        <ele>936.23</ele>
        <time>2013-09-01T05:42:08Z</time>
      </trkpt>
      <trkpt lat="45.66959" lon="2.96064">
        <ele>941.9</ele>
        <time>2013-09-01T05:42:33Z</time>
      </trkpt>
      <trkpt lat="45.67003" lon="2.95983">
        <ele>947.6</ele>
        <time>2013-09-01T05:42:55Z</time>
      </trkpt>
      <trkpt lat="45.67046" lon="2.95897">
        <ele>952.76</ele>
        <time>2013-09-01T05:43:17Z</time>
      </trkpt>
      <trkpt lat="45.67088" lon="2.95809">
        <ele>956.3</ele>
        <time>2013-09-01T05:43:39Z</time>
      </trkpt>
      <trkpt lat="45.67117" lon="2.9571">
        <ele>959.31</ele>
        <time>2013-09-01T05:44:02Z</time>
      </trkpt>
      <trkpt lat="45.67163" lon="2.95629">
        <ele>962.16</ele>
        <time>2013-09-01T05:44:24Z</time>
      </trkpt>
      <trkpt lat="45.67209" lon="2.95547">
        <ele>966.67</ele>
        <time>2013-09-01T05:44:45Z</time>
      </trkpt>
      <trkpt lat="45.67252" lon="2.95459">
        <ele>974.18</ele>
        <time>2013-09-01T05:45:03Z</time>
      </trkpt>
      <trkpt lat="45.6729" lon="2.95371">
        <ele>978.21</ele>
        <time>2013-09-01T05:45:20Z</time>
      </trkpt>
      <trkpt lat="45.67258" lon="2.95279">
        <ele>977.64</ele>
        <time>2013-09-01T05:45:47Z</time>
      </trkpt>
      <trkpt lat="45.67194" lon="2.95232">
        <ele>977.51</ele>
        <time>2013-09-01T05:46:13Z</time>
      </trkpt>
      <trkpt lat="45.67128" lon="2.95187">
        <ele>978.75</ele>
        <time>2013-09-01T05:46:41Z</time>
      </trkpt>
      <trkpt lat="45.67065" lon="2.95137">
        <ele>981.37</ele>
        <time>2013-09-01T05:47:10Z</time>
      </trkpt>
      <trkpt lat="45.66992" lon="2.9515">
        <ele>985.32</ele>
        <time>2013-09-01T05:47:47Z</time>
      </trkpt>
      <trkpt lat="45.66934" lon="2.95213">
        <ele>989.74</ele>
        <time>2013-09-01T05:48:29Z</time>
      </trkpt>
      <trkpt lat="45.66871" lon="2.95266">
        <ele>994.21</ele>
        <time>2013-09-01T05:49:03Z</time>
      </trkpt>
      <trkpt lat="45.66804" lon="2.95313">
        <ele>1000.2</ele>
        <time>2013-09-01T05:49:38Z</time>
      </trkpt>
      <trkpt lat="45.66736" lon="2.95346">
        <ele>1006.59</ele>
        <time>2013-09-01T05:50:12Z</time>
      </trkpt>
      <trkpt lat="45.66664" lon="2.95328">
        <ele>1013.02</ele>
        <time>2013-09-01T05:50:46Z</time>
      </trkpt>
      <trkpt lat="45.66595" lon="2.9529">
        <ele>1018.22</ele>
        <time>2013-09-01T05:51:11Z</time>
      </trkpt>
      <trkpt lat="45.66533" lon="2.95236">
        <ele>1021.15</ele>
        <time>2013-09-01T05:51:36Z</time>
      </trkpt>
      <trkpt lat="45.66473" lon="2.95172">
        <ele>1023.59</ele>
        <time>2013-09-01T05:51:54Z</time>
      </trkpt>
      <trkpt lat="45.66425" lon="2.9509">
        <ele>1033.32</ele>
        <time>2013-09-01T05:52:06Z</time>
      </trkpt>
      <trkpt lat="45.66366" lon="2.95019">
        <ele>1034.74</ele>
        <time>2013-09-01T05:52:16Z</time>
      </trkpt>
      <trkpt lat="45.66306" lon="2.94959">
        <ele>1031.09</ele>
        <time>2013-09-01T05:52:27Z</time>
      </trkpt>
      <trkpt lat="45.66347" lon="2.94869">
        <ele>1024.94</ele>
        <time>2013-09-01T05:52:51Z</time>
      </trkpt>
      <trkpt lat="45.66351" lon="2.94766">
        <ele>1024.51</ele>
        <time>2013-09-01T05:53:15Z</time>
      </trkpt>
      <trkpt lat="45.66306" lon="2.94683">
        <ele>1022.66</ele>
        <time>2013-09-01T05:53:38Z</time>
      </trkpt>
      <trkpt lat="45.66262" lon="2.94599">
        <ele>1021.52</ele>
        <time>2013-09-01T05:53:58Z</time>
      </trkpt>
      <trkpt lat="45.66225" lon="2.94509">
        <ele>1021.07</ele>
        <time>2013-09-01T05:54:15Z</time>
      </trkpt>
      <trkpt lat="45.66183" lon="2.94425">
        <ele>1020.62</ele>
        <time>2013-09-01T05:54:32Z</time>
      </trkpt>
      <trkpt lat="45.66149" lon="2.94324">
        <ele>1019.9</ele>
        <time>2013-09-01T05:54:44Z</time>
      </trkpt>
      <trkpt lat="45.66118" lon="2.94221">
        <ele>1020.49</ele>
        <time>2013-09-01T05:54:56Z</time>
      </trkpt>
      <trkpt lat="45.66083" lon="2.94125">
        <ele>1020.63</ele>
        <time>2013-09-01T05:55:09Z</time>
      </trkpt>
      <trkpt lat="45.66045" lon="2.94032">
        <ele>1020.52</ele>
        <time>2013-09-01T05:55:19Z</time>
      </trkpt>
      <trkpt lat="45.66003" lon="2.93949">
        <ele>1020.26</ele>
        <time>2013-09-01T05:55:29Z</time>
      </trkpt>
      <trkpt lat="45.65946" lon="2.9388">
        <ele>1018.41</ele>
        <time>2013-09-01T05:55:52Z</time>
      </trkpt>
      <trkpt lat="45.65875" lon="2.9385">
        <ele>1023.06</ele>
        <time>2013-09-01T05:56:07Z</time>
      </trkpt>
      <trkpt lat="45.65804" lon="2.9382">
        <ele>1022.27</ele>
        <time>2013-09-01T05:56:24Z</time>
      </trkpt>
      <trkpt lat="45.65736" lon="2.93771">
        <ele>1023.2</ele>
        <time>2013-09-01T05:56:38Z</time>
      </trkpt>
      <trkpt lat="45.65674" lon="2.93715">
        <ele>1021.71</ele>
        <time>2013-09-01T05:56:50Z</time>
      </trkpt>
      <trkpt lat="45.65621" lon="2.93646">
        <ele>1020.75</ele>
        <time>2013-09-01T05:57:03Z</time>
      </trkpt>
      <trkpt lat="45.65563" lon="2.93573">
        <ele>1019.55</ele>
        <time>2013-09-01T05:57:16Z</time>
      </trkpt>
      <trkpt lat="45.65505" lon="2.93507">
        <ele>1019.51</ele>
        <time>2013-09-01T05:57:27Z</time>
      </trkpt>
      <trkpt lat="45.65442" lon="2.93453">
        <ele>1017.31</ele>
        <time>2013-09-01T05:57:37Z</time>
      </trkpt>
      <trkpt lat="45.65386" lon="2.93384">
        <ele>1015.5</ele>
        <time>2013-09-01T05:57:46Z</time>
      </trkpt>
      <trkpt lat="45.65339" lon="2.93298">
        <ele>1014.03</ele>
        <time>2013-09-01T05:57:54Z</time>
      </trkpt>
      <trkpt lat="45.65292" lon="2.93215">
        <ele>1012.26</ele>
        <time>2013-09-01T05:58:02Z</time>
      </trkpt>
      <trkpt lat="45.65251" lon="2.93129">
        <ele>1007.81</ele>
        <time>2013-09-01T05:58:11Z</time>
      </trkpt>
      <trkpt lat="45.65223" lon="2.93032">
        <ele>1001.71</ele>
        <time>2013-09-01T05:58:23Z</time>
      </trkpt>
      <trkpt lat="45.65197" lon="2.92934">
        <ele>998.54</ele>
        <time>2013-09-01T05:58:34Z</time>
      </trkpt>
      <trkpt lat="45.65137" lon="2.92871">
        <ele>994.03</ele>
        <time>2013-09-01T05:58:48Z</time>
      </trkpt>
      <trkpt lat="45.65075" lon="2.92929">
        <ele>990.77</ele>
        <time>2013-09-01T05:59:15Z</time>
      </trkpt>
      <trkpt lat="45.64995" lon="2.92953">
        <ele>989.51</ele>
        <time>2013-09-01T05:59:51Z</time>
      </trkpt>
      <trkpt lat="45.64918" lon="2.92968">
        <ele>991.57</ele>
        <time>2013-09-01T06:00:30Z</time>
      </trkpt>
      <trkpt lat="45.64849" lon="2.92929">
        <ele>997.38</ele>
        <time>2013-09-01T06:00:50Z</time>
      </trkpt>
      <trkpt lat="45.64795" lon="2.92854">
        <ele>1004.4</ele>
        <time>2013-09-01T06:01:07Z</time>
      </trkpt>
      <trkpt lat="45.64738" lon="2.92788">
        <ele>1006.32</ele>
        <time>2013-09-01T06:01:22Z</time>
      </trkpt>
      <trkpt lat="45.64696" lon="2.92704">
        <ele>1004.9</ele>
        <time>2013-09-01T06:01:39Z</time>
      </trkpt>
      <trkpt lat="45.64642" lon="2.92775">
        <ele>1003.06</ele>
        <time>2013-09-01T06:01:54Z</time>
      </trkpt>
      <trkpt lat="45.64613" lon="2.92874">
        <ele>1006.85</ele>
        <time>2013-09-01T06:02:03Z</time>
      </trkpt>
      <trkpt lat="45.6458" lon="2.92979">
        <ele>1007.52</ele>
        <time>2013-09-01T06:02:12Z</time>
      </trkpt>
      <trkpt lat="45.64516" lon="2.93032">
        <ele>1003.08</ele>
        <time>2013-09-01T06:02:21Z</time>
      </trkpt>
      <trkpt lat="45.64436" lon="2.93052">
        <ele>992.52</ele>
        <time>2013-09-01T06:02:36Z</time>
      </trkpt>
      <trkpt lat="45.64408" lon="2.93153">
        <ele>988.85</ele>
        <time>2013-09-01T06:02:48Z</time>
      </trkpt>
      <trkpt lat="45.64359" lon="2.93071">
        <ele>985.59</ele>
        <time>2013-09-01T06:03:21Z</time>
      </trkpt>
      <trkpt lat="45.64295" lon="2.93009">
        <ele>978.62</ele>
        <time>2013-09-01T06:03:53Z</time>
      </trkpt>
      <trkpt lat="45.64264" lon="2.9291">
        <ele>980.44</ele>
        <time>2013-09-01T06:04:27Z</time>
      </trkpt>
      <trkpt lat="45.64193" lon="2.9288">
        <ele>984.33</ele>
        <time>2013-09-01T06:04:56Z</time>
      </trkpt>
      <trkpt lat="45.6412" lon="2.92882">
        <ele>985.45</ele>
        <time>2013-09-01T06:05:28Z</time>
      </trkpt>
      <trkpt lat="45.64052" lon="2.92923">
        <ele>988.25</ele>
        <time>2013-09-01T06:06:03Z</time>
      </trkpt>
      <trkpt lat="45.6399" lon="2.92869">
        <ele>991.49</ele>
        <time>2013-09-01T06:06:36Z</time>
      </trkpt>
      <trkpt lat="45.6393" lon="2.92811">
        <ele>994.46</ele>
        <time>2013-09-01T06:07:07Z</time>
      </trkpt>
      <trkpt lat="45.63893" lon="2.92719">
        <ele>1001.09</ele>
        <time>2013-09-01T06:07:38Z</time>
      </trkpt>
      <trkpt lat="45.63867" lon="2.92623">
        <ele>1004.44</ele>
        <time>2013-09-01T06:08:01Z</time>
      </trkpt>
      <trkpt lat="45.63819" lon="2.92539">
        <ele>1006.91</ele>
        <time>2013-09-01T06:08:22Z</time>
      </trkpt>
      <trkpt lat="45.63768" lon="2.92462">
        <ele>1008.48</ele>
        <time>2013-09-01T06:08:42Z</time>
      </trkpt>
      <trkpt lat="45.63701" lon="2.92419">
        <ele>1009.5</ele>
        <time>2013-09-01T06:09:04Z</time>
      </trkpt>
      <trkpt lat="45.63628" lon="2.92399">
        <ele>1010.27</ele>
        <time>2013-09-01T06:09:32Z</time>
      </trkpt>
      <trkpt lat="45.63561" lon="2.92356">
        <ele>1015.21</ele>
        <time>2013-09-01T06:09:57Z</time>
      </trkpt>
      <trkpt lat="45.63498" lon="2.92292">
        <ele>1022.4</ele>
        <time>2013-09-01T06:10:19Z</time>
      </trkpt>
      <trkpt lat="45.63464" lon="2.922">
        <ele>1028.89</ele>
        <time>2013-09-01T06:10:38Z</time>
      </trkpt>
      <trkpt lat="45.63402" lon="2.92256">
        <ele>1033.67</ele>
        <time>2013-09-01T06:11:20Z</time>
      </trkpt>
      <trkpt lat="45.63363" lon="2.92346">
        <ele>1038.29</ele>
        <time>2013-09-01T06:11:50Z</time>
      </trkpt>
      <trkpt lat="45.63298" lon="2.92402">
        <ele>1040.51</ele>
        <time>2013-09-01T06:12:23Z</time>
      </trkpt>
      <trkpt lat="45.63238" lon="2.92459">
        <ele>1042.07</ele>
        <time>2013-09-01T06:12:51Z</time>
      </trkpt>
      <trkpt lat="45.63169" lon="2.92496">
        <ele>1050.17</ele>
        <time>2013-09-01T06:13:17Z</time>
      </trkpt>
      <trkpt lat="45.63093" lon="2.92515">
        <ele>1064.29</ele>
        <time>2013-09-01T06:13:32Z</time>
      </trkpt>
      <trkpt lat="45.63019" lon="2.92535">
        <ele>1066.37</ele>
        <time>2013-09-01T06:13:44Z</time>
      </trkpt>
      <trkpt lat="45.62943" lon="2.92554">
        <ele>1067.33</ele>
        <time>2013-09-01T06:13:56Z</time>
      </trkpt>
      <trkpt lat="45.62868" lon="2.92573">
        <ele>1068.81</ele>
        <time>2013-09-01T06:14:08Z</time>
      </trkpt>
      <trkpt lat="45.62796" lon="2.9259">
        <ele>1070.31</ele>
        <time>2013-09-01T06:14:21Z</time>
      </trkpt>
      <trkpt lat="45.62719" lon="2.92608">
        <ele>1070.94</ele>
        <time>2013-09-01T06:14:31Z</time>
      </trkpt>
      <trkpt lat="45.62641" lon="2.92642">
        <ele>1070.03</ele>
        <time>2013-09-01T06:14:38Z</time>
      </trkpt>
      <trkpt lat="45.62578" lon="2.92693">
        <ele>1068.26</ele>
        <time>2013-09-01T06:14:44Z</time>
      </trkpt>
      <trkpt lat="45.6251" lon="2.92745">
        <ele>1067.36</ele>
        <time>2013-09-01T06:14:51Z</time>
      </trkpt>
      <trkpt lat="45.62447" lon="2.92796">
        <ele>1066.62</ele>
        <time>2013-09-01T06:14:58Z</time>
      </trkpt>
      <trkpt lat="45.62386" lon="2.92859">
        <ele>1065.57</ele>
        <time>2013-09-01T06:15:08Z</time>
      </trkpt>
      <trkpt lat="45.62346" lon="2.92771">
        <ele>1051.05</ele>
        <time>2013-09-01T06:17:02Z</time>
      </trkpt>
      <trkpt lat="45.62368" lon="2.92661">
        <ele>1046.93</ele>
        <time>2013-09-01T06:17:13Z</time>
      </trkpt>
      <trkpt lat="45.62396" lon="2.92565">
        <ele>1044.85</ele>
        <time>2013-09-01T06:17:22Z</time>
      </trkpt>
      <trkpt lat="45.62412" lon="2.92457">
        <ele>1042.18</ele>
        <time>2013-09-01T06:17:32Z</time>
      </trkpt>
      <trkpt lat="45.62396" lon="2.9235">
        <ele>1039.92</ele>
        <time>2013-09-01T06:17:42Z</time>
      </trkpt>
      <trkpt lat="45.624" lon="2.92243">
        <ele>1037.84</ele>
        <time>2013-09-01T06:17:53Z</time>
      </trkpt>
      <trkpt lat="45.62402" lon="2.92131">
        <ele>1036.55</ele>
        <time>2013-09-01T06:18:05Z</time>
      </trkpt>
      <trkpt lat="45.62399" lon="2.92028">
        <ele>1035.75</ele>
        <time>2013-09-01T06:18:16Z</time>
      </trkpt>
      <trkpt lat="45.624" lon="2.91923">
        <ele>1034.05</ele>
        <time>2013-09-01T06:18:28Z</time>
      </trkpt>
      <trkpt lat="45.62412" lon="2.91816">
        <ele>1034.35</ele>
        <time>2013-09-01T06:18:42Z</time>
      </trkpt>
      <trkpt lat="45.62418" lon="2.91713">
        <ele>1033.74</ele>
        <time>2013-09-01T06:18:55Z</time>
      </trkpt>
      <trkpt lat="45.62431" lon="2.91605">
        <ele>1032.39</ele>
        <time>2013-09-01T06:19:10Z</time>
      </trkpt>
      <trkpt lat="45.62427" lon="2.91502">
        <ele>1034.42</ele>
        <time>2013-09-01T06:19:25Z</time>
      </trkpt>
      <trkpt lat="45.62435" lon="2.91399">
        <ele>1034.14</ele>
        <time>2013-09-01T06:19:42Z</time>
      </trkpt>
      <trkpt lat="45.62445" lon="2.91292">
        <ele>1034.51</ele>
        <time>2013-09-01T06:20:01Z</time>
      </trkpt>
      <trkpt lat="45.62417" lon="2.91189">
        <ele>1038.83</ele>
        <time>2013-09-01T06:20:15Z</time>
      </trkpt>
      <trkpt lat="45.62404" lon="2.91086">
        <ele>1039.51</ele>
        <time>2013-09-01T06:20:36Z</time>
      </trkpt>
      <trkpt lat="45.62343" lon="2.91142">
        <ele>1041.5</ele>
        <time>2013-09-01T06:21:22Z</time>
      </trkpt>
      <trkpt lat="45.62277" lon="2.91202">
        <ele>1038.41</ele>
        <time>2013-09-01T06:21:49Z</time>
      </trkpt>
      <trkpt lat="45.6221" lon="2.91251">
        <ele>1032.73</ele>
        <time>2013-09-01T06:22:13Z</time>
      </trkpt>
      <trkpt lat="45.62142" lon="2.912">
        <ele>1034.49</ele>
        <time>2013-09-01T06:22:42Z</time>
      </trkpt>
      <trkpt lat="45.62072" lon="2.91226">
        <ele>1051.99</ele>
        <time>2013-09-01T06:23:26Z</time>
      </trkpt>
      <trkpt lat="45.62026" lon="2.91305">
        <ele>1070.22</ele>
        <time>2013-09-01T06:23:59Z</time>
      </trkpt>
      <trkpt lat="45.61979" lon="2.91384">
        <ele>1081.26</ele>
        <time>2013-09-01T06:24:27Z</time>
      </trkpt>
      <trkpt lat="45.61932" lon="2.91466">
        <ele>1093.05</ele>
        <time>2013-09-01T06:24:52Z</time>
      </trkpt>
      <trkpt lat="45.61888" lon="2.91552">
        <ele>1100.72</ele>
        <time>2013-09-01T06:25:10Z</time>
      </trkpt>
      <trkpt lat="45.6184" lon="2.91631">
        <ele>1103.34</ele>
        <time>2013-09-01T06:25:24Z</time>
      </trkpt>
      <trkpt lat="45.61792" lon="2.91713">
        <ele>1104.99</ele>
        <time>2013-09-01T06:25:40Z</time>
      </trkpt>
      <trkpt lat="45.61748" lon="2.91799">
        <ele>1102.14</ele>
        <time>2013-09-01T06:25:53Z</time>
      </trkpt>
      <trkpt lat="45.61705" lon="2.91887">
        <ele>1093.46</ele>
        <time>2013-09-01T06:26:08Z</time>
      </trkpt>
      <trkpt lat="45.6166" lon="2.91968">
        <ele>1093.51</ele>
        <time>2013-09-01T06:26:29Z</time>
      </trkpt>
      <trkpt lat="45.61607" lon="2.92054">
        <ele>1105.44</ele>
        <time>2013-09-01T06:27:09Z</time>
      </trkpt>
      <trkpt lat="45.6156" lon="2.92148">
        <ele>1119.99</ele>
        <time>2013-09-01T06:27:53Z</time>
      </trkpt>
      <trkpt lat="45.61512" lon="2.92241">
        <ele>1123.5</ele>
        <time>2013-09-01T06:28:21Z</time>
      </trkpt>
      <trkpt lat="45.61441" lon="2.9226">
        <ele>1127.41</ele>
        <time>2013-09-01T06:28:56Z</time>
      </trkpt>
      <trkpt lat="45.61404" lon="2.92168">
        <ele>1128.51</ele>
        <time>2013-09-01T06:29:22Z</time>
      </trkpt>
      <trkpt lat="45.61381" lon="2.92067">
        <ele>1128.51</ele>
        <time>2013-09-01T06:29:48Z</time>
      </trkpt>
      <trkpt lat="45.61356" lon="2.91966">
        <ele>1130.7</ele>
        <time>2013-09-01T06:30:12Z</time>
      </trkpt>
      <trkpt lat="45.6133" lon="2.91867">
        <ele>1135.42</ele>
        <time>2013-09-01T06:30:34Z</time>
      </trkpt>
      <trkpt lat="45.61308" lon="2.91766">
        <ele>1139.13</ele>
        <time>2013-09-01T06:30:55Z</time>
      </trkpt>
      <trkpt lat="45.61287" lon="2.91668">
        <ele>1141.4</ele>
        <time>2013-09-01T06:31:16Z</time>
      </trkpt>
      <trkpt lat="45.61255" lon="2.91573">
        <ele>1145.11</ele>
        <time>2013-09-01T06:31:40Z</time>
      </trkpt>
      <trkpt lat="45.61229" lon="2.91475">
        <ele>1148.78</ele>
        <time>2013-09-01T06:32:02Z</time>
      </trkpt>
      <trkpt lat="45.61193" lon="2.91384">
        <ele>1153.12</ele>
        <time>2013-09-01T06:32:25Z</time>
      </trkpt>
      <trkpt lat="45.61131" lon="2.91329">
        <ele>1159.22</ele>
        <time>2013-09-01T06:32:46Z</time>
      </trkpt>
      <trkpt lat="45.61066" lon="2.91277">
        <ele>1165.8</ele>
        <time>2013-09-01T06:33:15Z</time>
      </trkpt>
      <trkpt lat="45.61003" lon="2.91224">
        <ele>1172.21</ele>
        <time>2013-09-01T06:33:37Z</time>
      </trkpt>
      <trkpt lat="45.60959" lon="2.9114">
        <ele>1176.72</ele>
        <time>2013-09-01T06:33:58Z</time>
      </trkpt>
      <trkpt lat="45.60914" lon="2.91054">
        <ele>1180.79</ele>
        <time>2013-09-01T06:34:19Z</time>
      </trkpt>
      <trkpt lat="45.60871" lon="2.90966">
        <ele>1183.45</ele>
        <time>2013-09-01T06:34:41Z</time>
      </trkpt>
      <trkpt lat="45.60835" lon="2.90874">
        <ele>1185.5</ele>
        <time>2013-09-01T06:35:06Z</time>
      </trkpt>
      <trkpt lat="45.60798" lon="2.90784">
        <ele>1188.3</ele>
        <time>2013-09-01T06:35:27Z</time>
      </trkpt>
      <trkpt lat="45.6075" lon="2.90704">
        <ele>1192.07</ele>
        <time>2013-09-01T06:35:48Z</time>
      </trkpt>
      <trkpt lat="45.60706" lon="2.90616">
        <ele>1194.42</ele>
        <time>2013-09-01T06:36:04Z</time>
      </trkpt>
      <trkpt lat="45.60694" lon="2.90513">
        <ele>1199.06</ele>
        <time>2013-09-01T06:36:18Z</time>
      </trkpt>
      <trkpt lat="45.6069" lon="2.90408">
        <ele>1199.5</ele>
        <time>2013-09-01T06:36:31Z</time>
      </trkpt>
      <trkpt lat="45.60678" lon="2.90301">
        <ele>1197.74</ele>
        <time>2013-09-01T06:36:43Z</time>
      </trkpt>
      <trkpt lat="45.60672" lon="2.90196">
        <ele>1195.81</ele>
        <time>2013-09-01T06:36:58Z</time>
      </trkpt>
      <trkpt lat="45.6067" lon="2.90091">
        <ele>1192.55</ele>
        <time>2013-09-01T06:37:20Z</time>
      </trkpt>
      <trkpt lat="45.60689" lon="2.8999">
        <ele>1190.81</ele>
        <time>2013-09-01T06:37:34Z</time>
      </trkpt>
      <trkpt lat="45.6071" lon="2.89887">
        <ele>1188.54</ele>
        <time>2013-09-01T06:37:52Z</time>
      </trkpt>
      <trkpt lat="45.60737" lon="2.8979">
        <ele>1184.3</ele>
        <time>2013-09-01T06:38:10Z</time>
      </trkpt>
      <trkpt lat="45.60734" lon="2.89685">
        <ele>1185.1</ele>
        <time>2013-09-01T06:38:29Z</time>
      </trkpt>
      <trkpt lat="45.60688" lon="2.89767">
        <ele>1190.75</ele>
        <time>2013-09-01T06:39:12Z</time>
      </trkpt>
      <trkpt lat="45.6064" lon="2.89855">
        <ele>1187.68</ele>
        <time>2013-09-01T06:39:23Z</time>
      </trkpt>
      <trkpt lat="45.60593" lon="2.89938">
        <ele>1182.61</ele>
        <time>2013-09-01T06:39:32Z</time>
      </trkpt>
      <trkpt lat="45.60551" lon="2.90026">
        <ele>1179.35</ele>
        <time>2013-09-01T06:39:41Z</time>
      </trkpt>
      <trkpt lat="45.60507" lon="2.90116">
        <ele>1174.44</ele>
        <time>2013-09-01T06:39:53Z</time>
      </trkpt>
      <trkpt lat="45.60478" lon="2.90219">
        <ele>1166.32</ele>
        <time>2013-09-01T06:40:03Z</time>
      </trkpt>
      <trkpt lat="45.60433" lon="2.90303">
        <ele>1161.52</ele>
        <time>2013-09-01T06:40:11Z</time>
      </trkpt>
      <trkpt lat="45.60382" lon="2.90382">
        <ele>1156.93</ele>
        <time>2013-09-01T06:40:20Z</time>
      </trkpt>
      <trkpt lat="45.6034" lon="2.9047">
        <ele>1152.68</ele>
        <time>2013-09-01T06:40:31Z</time>
      </trkpt>
      <trkpt lat="45.6028" lon="2.90537">
        <ele>1142.63</ele>
        <time>2013-09-01T06:40:46Z</time>
      </trkpt>
      <trkpt lat="45.60207" lon="2.9058">
        <ele>1139.08</ele>
        <time>2013-09-01T06:40:55Z</time>
      </trkpt>
      <trkpt lat="45.60136" lon="2.90625">
        <ele>1138.32</ele>
        <time>2013-09-01T06:41:03Z</time>
      </trkpt>
      <trkpt lat="45.60085" lon="2.90698">
        <ele>1134.47</ele>
        <time>2013-09-01T06:41:10Z</time>
      </trkpt>
      <trkpt lat="45.60026" lon="2.90773">
        <ele>1127.5</ele>
        <time>2013-09-01T06:41:17Z</time>
      </trkpt>
      <trkpt lat="45.59953" lon="2.90822">
        <ele>1121.4</ele>
        <time>2013-09-01T06:41:23Z</time>
      </trkpt>
      <trkpt lat="45.59893" lon="2.90902">
        <ele>1114.34</ele>
        <time>2013-09-01T06:41:29Z</time>
      </trkpt>
      <trkpt lat="45.59833" lon="2.90975">
        <ele>1110.26</ele>
        <time>2013-09-01T06:41:36Z</time>
      </trkpt>
      <trkpt lat="45.59764" lon="2.91015">
        <ele>1108.76</ele>
        <time>2013-09-01T06:41:44Z</time>
      </trkpt>
      <trkpt lat="45.59706" lon="2.91086">
        <ele>1099.63</ele>
        <time>2013-09-01T06:41:56Z</time>
      </trkpt>
      <trkpt lat="45.5966" lon="2.9117">
        <ele>1095.84</ele>
        <time>2013-09-01T06:42:16Z</time>
      </trkpt>
      <trkpt lat="45.59605" lon="2.91239">
        <ele>1100.49</ele>
        <time>2013-09-01T06:44:53Z</time>
      </trkpt>
      <trkpt lat="45.59546" lon="2.91299">
        <ele>1106.67</ele>
        <time>2013-09-01T06:45:07Z</time>
      </trkpt>
      <trkpt lat="45.5948" lon="2.91361">
        <ele>1101.72</ele>
        <time>2013-09-01T06:45:20Z</time>
      </trkpt>
      <trkpt lat="45.59417" lon="2.91425">
        <ele>1096.93</ele>
        <time>2013-09-01T06:45:32Z</time>
      </trkpt>
      <trkpt lat="45.59371" lon="2.91517">
        <ele>1096.11</ele>
        <time>2013-09-01T06:45:43Z</time>
      </trkpt>
      <trkpt lat="45.59322" lon="2.91603">
        <ele>1092.14</ele>
        <time>2013-09-01T06:45:52Z</time>
      </trkpt>
      <trkpt lat="45.59249" lon="2.91623">
        <ele>1088.8</ele>
        <time>2013-09-01T06:46:05Z</time>
      </trkpt>
      <trkpt lat="45.59176" lon="2.91614">
        <ele>1086.81</ele>
        <time>2013-09-01T06:46:13Z</time>
      </trkpt>
      <trkpt lat="45.59152" lon="2.91719">
        <ele>1070.59</ele>
        <time>2013-09-01T06:46:34Z</time>
      </trkpt>
      <trkpt lat="45.59079" lon="2.91732">
        <ele>1063.5</ele>
        <time>2013-09-01T06:46:43Z</time>
      </trkpt>
      <trkpt lat="45.59011" lon="2.91779">
        <ele>1056.53</ele>
        <time>2013-09-01T06:46:56Z</time>
      </trkpt>
      <trkpt lat="45.58936" lon="2.91779">
        <ele>1050.86</ele>
        <time>2013-09-01T06:47:10Z</time>
      </trkpt>
      <trkpt lat="45.58862" lon="2.91788">
        <ele>1047.64</ele>
        <time>2013-09-01T06:47:37Z</time>
      </trkpt>
      <trkpt lat="45.5879" lon="2.91775">
        <ele>1046.54</ele>
        <time>2013-09-01T06:47:59Z</time>
      </trkpt>
      <trkpt lat="45.58719" lon="2.91807">
        <ele>1048.06</ele>
        <time>2013-09-01T06:48:19Z</time>
      </trkpt>
      <trkpt lat="45.58648" lon="2.91842">
        <ele>1052.2</ele>
        <time>2013-09-01T06:48:36Z</time>
      </trkpt>
      <trkpt lat="45.58575" lon="2.91872">
        <ele>1055.16</ele>
        <time>2013-09-01T06:48:52Z</time>
      </trkpt>
      <trkpt lat="45.58509" lon="2.91912">
        <ele>1054.54</ele>
        <time>2013-09-01T06:49:07Z</time>
      </trkpt>
      <trkpt lat="45.5845" lon="2.91975">
        <ele>1054.53</ele>
        <time>2013-09-01T06:49:23Z</time>
      </trkpt>
      <trkpt lat="45.58381" lon="2.92022">
        <ele>1053.83</ele>
        <time>2013-09-01T06:49:39Z</time>
      </trkpt>
      <trkpt lat="45.58319" lon="2.92078">
        <ele>1052.51</ele>
        <time>2013-09-01T06:50:13Z</time>
      </trkpt>
      <trkpt lat="45.58308" lon="2.92183">
        <ele>1053.94</ele>
        <time>2013-09-01T06:50:38Z</time>
      </trkpt>
      <trkpt lat="45.58283" lon="2.92281">
        <ele>1055.48</ele>
        <time>2013-09-01T06:51:00Z</time>
      </trkpt>
      <trkpt lat="45.58275" lon="2.92391">
        <ele>1062.31</ele>
        <time>2013-09-01T06:52:20Z</time>
      </trkpt>
      <trkpt lat="45.58266" lon="2.92494">
        <ele>1064.34</ele>
        <time>2013-09-01T06:52:30Z</time>
      </trkpt>
      <trkpt lat="45.58267" lon="2.92599">
        <ele>1064.5</ele>
        <time>2013-09-01T06:52:39Z</time>
      </trkpt>
      <trkpt lat="45.58255" lon="2.92702">
        <ele>1062.62</ele>
        <time>2013-09-01T06:52:50Z</time>
      </trkpt>
      <trkpt lat="45.58228" lon="2.92801">
        <ele>1052.06</ele>
        <time>2013-09-01T06:54:12Z</time>
      </trkpt>
      <trkpt lat="45.58193" lon="2.92895">
        <ele>1043.52</ele>
        <time>2013-09-01T06:54:37Z</time>
      </trkpt>
      <trkpt lat="45.58186" lon="2.93007">
        <ele>1034.61</ele>
        <time>2013-09-01T06:54:45Z</time>
      </trkpt>
      <trkpt lat="45.58207" lon="2.93112">
        <ele>1029.76</ele>
        <time>2013-09-01T06:54:58Z</time>
      </trkpt>
      <trkpt lat="45.58254" lon="2.93198">
        <ele>1030.35</ele>
        <time>2013-09-01T06:55:07Z</time>
      </trkpt>
      <trkpt lat="45.58308" lon="2.93275">
        <ele>1029.17</ele>
        <time>2013-09-01T06:55:19Z</time>
      </trkpt>
      <trkpt lat="45.58377" lon="2.93316">
        <ele>1022.82</ele>
        <time>2013-09-01T06:55:29Z</time>
      </trkpt>
      <trkpt lat="45.58426" lon="2.93397">
        <ele>1006.16</ele>
        <time>2013-09-01T06:55:53Z</time>
      </trkpt>
      <trkpt lat="45.58401" lon="2.93494">
        <ele>996.76</ele>
        <time>2013-09-01T06:56:05Z</time>
      </trkpt>
      <trkpt lat="45.58337" lon="2.93558">
        <ele>975.15</ele>
        <time>2013-09-01T06:56:46Z</time>
      </trkpt>
      <trkpt lat="45.58263" lon="2.93582">
        <ele>972.71</ele>
        <time>2013-09-01T06:56:55Z</time>
      </trkpt>
      <trkpt lat="45.58188" lon="2.93614">
        <ele>970.26</ele>
        <time>2013-09-01T06:57:03Z</time>
      </trkpt>
      <trkpt lat="45.58119" lon="2.93653">
        <ele>962.73</ele>
        <time>2013-09-01T06:57:22Z</time>
      </trkpt>
      <trkpt lat="45.58045" lon="2.93657">
        <ele>957.1</ele>
        <time>2013-09-01T06:57:34Z</time>
      </trkpt>
      <trkpt lat="45.57975" lon="2.93614">
        <ele>951.16</ele>
        <time>2013-09-01T06:57:43Z</time>
      </trkpt>
      <trkpt lat="45.57901" lon="2.93618">
        <ele>948.02</ele>
        <time>2013-09-01T06:57:52Z</time>
      </trkpt>
      <trkpt lat="45.57843" lon="2.9368">
        <ele>943.51</ele>
        <time>2013-09-01T06:58:01Z</time>
      </trkpt>
      <trkpt lat="45.57866" lon="2.93575">
        <ele>935.74</ele>
        <time>2013-09-01T06:58:42Z</time>
      </trkpt>
      <trkpt lat="45.57921" lon="2.93502">
        <ele>936.7</ele>
        <time>2013-09-01T06:59:23Z</time>
      </trkpt>
      <trkpt lat="45.57976" lon="2.93434">
        <ele>942.75</ele>
        <time>2013-09-01T07:00:16Z</time>
      </trkpt>
      <trkpt lat="45.58008" lon="2.93337">
        <ele>947.82</ele>
        <time>2013-09-01T07:00:42Z</time>
      </trkpt>
      <trkpt lat="45.58011" lon="2.93234">
        <ele>957.27</ele>
        <time>2013-09-01T07:01:00Z</time>
      </trkpt>
      <trkpt lat="45.57986" lon="2.93125">
        <ele>957.76</ele>
        <time>2013-09-01T07:01:32Z</time>
      </trkpt>
      <trkpt lat="45.57957" lon="2.93026">
        <ele>964.88</ele>
        <time>2013-09-01T07:02:22Z</time>
      </trkpt>
      <trkpt lat="45.57942" lon="2.92921">
        <ele>969</ele>
        <time>2013-09-01T07:02:35Z</time>
      </trkpt>
      <trkpt lat="45.57978" lon="2.92824">
        <ele>964.96</ele>
        <time>2013-09-01T07:02:45Z</time>
      </trkpt>
      <trkpt lat="45.58012" lon="2.92726">
        <ele>956.17</ele>
        <time>2013-09-01T07:02:55Z</time>
      </trkpt>
      <trkpt lat="45.57958" lon="2.92648">
        <ele>948.84</ele>
        <time>2013-09-01T07:03:18Z</time>
      </trkpt>
      <trkpt lat="45.57889" lon="2.92614">
        <ele>950.15</ele>
        <time>2013-09-01T07:03:27Z</time>
      </trkpt>
      <trkpt lat="45.57816" lon="2.92584">
        <ele>946.49</ele>
        <time>2013-09-01T07:03:37Z</time>
      </trkpt>
      <trkpt lat="45.57764" lon="2.92505">
        <ele>939.01</ele>
        <time>2013-09-01T07:03:49Z</time>
      </trkpt>
      <trkpt lat="45.57698" lon="2.92444">
        <ele>931.45</ele>
        <time>2013-09-01T07:04:07Z</time>
      </trkpt>
      <trkpt lat="45.57624" lon="2.92421">
        <ele>926.76</ele>
        <time>2013-09-01T07:04:17Z</time>
      </trkpt>
      <trkpt lat="45.57551" lon="2.92412">
        <ele>919.41</ele>
        <time>2013-09-01T07:04:31Z</time>
      </trkpt>
      <trkpt lat="45.57482" lon="2.92374">
        <ele>911.96</ele>
        <time>2013-09-01T07:04:55Z</time>
      </trkpt>
      <trkpt lat="45.57402" lon="2.92372">
        <ele>902.26</ele>
        <time>2013-09-01T07:06:12Z</time>
      </trkpt>
      <trkpt lat="45.5733" lon="2.92374">
        <ele>887.35</ele>
        <time>2013-09-01T07:06:35Z</time>
      </trkpt>
      <trkpt lat="45.57258" lon="2.92359">
        <ele>881.41</ele>
        <time>2013-09-01T07:07:33Z</time>
      </trkpt>
      <trkpt lat="45.57207" lon="2.92436">
        <ele>866.12</ele>
        <time>2013-09-01T07:07:52Z</time>
      </trkpt>
      <trkpt lat="45.57143" lon="2.92483">
        <ele>862.79</ele>
        <time>2013-09-01T07:08:07Z</time>
      </trkpt>
      <trkpt lat="45.57085" lon="2.9255">
        <ele>868.8</ele>
        <time>2013-09-01T07:08:22Z</time>
      </trkpt>
      <trkpt lat="45.5703" lon="2.9262">
        <ele>869.97</ele>
        <time>2013-09-01T07:09:02Z</time>
      </trkpt>
      <trkpt lat="45.57019" lon="2.92723">
        <ele>864.22</ele>
        <time>2013-09-01T07:09:25Z</time>
      </trkpt>
      <trkpt lat="45.57039" lon="2.92824">
        <ele>860.55</ele>
        <time>2013-09-01T07:09:47Z</time>
      </trkpt>
      <trkpt lat="45.56997" lon="2.9291">
        <ele>865.81</ele>
        <time>2013-09-01T07:10:02Z</time>
      </trkpt>
      <trkpt lat="45.56931" lon="2.92955">
        <ele>873.8</ele>
        <time>2013-09-01T07:10:25Z</time>
      </trkpt>
      <trkpt lat="45.5686" lon="2.92964">
        <ele>873.77</ele>
        <time>2013-09-01T07:10:44Z</time>
      </trkpt>
      <trkpt lat="45.56802" lon="2.92895">
        <ele>878.28</ele>
        <time>2013-09-01T07:11:05Z</time>
      </trkpt>
      <trkpt lat="45.56791" lon="2.92998">
        <ele>877.06</ele>
        <time>2013-09-01T07:12:28Z</time>
      </trkpt>
      <trkpt lat="45.56791" lon="2.93112">
        <ele>875.53</ele>
        <time>2013-09-01T07:12:59Z</time>
      </trkpt>
      <trkpt lat="45.56838" lon="2.93202">
        <ele>877.26</ele>
        <time>2013-09-01T07:13:25Z</time>
      </trkpt>
      <trkpt lat="45.56841" lon="2.93309">
        <ele>880.13</ele>
        <time>2013-09-01T07:13:47Z</time>
      </trkpt>
      <trkpt lat="45.56834" lon="2.93419">
        <ele>884.41</ele>
        <time>2013-09-01T07:14:10Z</time>
      </trkpt>
      <trkpt lat="45.56836" lon="2.93528">
        <ele>891.92</ele>
        <time>2013-09-01T07:14:32Z</time>
      </trkpt>
      <trkpt lat="45.5683" lon="2.93638">
        <ele>895.49</ele>
        <time>2013-09-01T07:14:41Z</time>
      </trkpt>
      <trkpt lat="45.56845" lon="2.93749">
        <ele>896.12</ele>
        <time>2013-09-01T07:14:48Z</time>
      </trkpt>
      <trkpt lat="45.56868" lon="2.9385">
        <ele>891.4</ele>
        <time>2013-09-01T07:14:57Z</time>
      </trkpt>
      <trkpt lat="45.56813" lon="2.93779">
        <ele>885.59</ele>
        <time>2013-09-01T07:15:17Z</time>
      </trkpt>
      <trkpt lat="45.56776" lon="2.93691">
        <ele>883.12</ele>
        <time>2013-09-01T07:15:38Z</time>
      </trkpt>
      <trkpt lat="45.56744" lon="2.93599">
        <ele>879.73</ele>
        <time>2013-09-01T07:16:00Z</time>
      </trkpt>
      <trkpt lat="45.56703" lon="2.93507">
        <ele>884.21</ele>
        <time>2013-09-01T07:16:33Z</time>
      </trkpt>
      <trkpt lat="45.56646" lon="2.93571">
        <ele>882.23</ele>
        <time>2013-09-01T07:16:45Z</time>
      </trkpt>
      <trkpt lat="45.56592" lon="2.93644">
        <ele>881.88</ele>
        <time>2013-09-01T07:16:57Z</time>
      </trkpt>
      <trkpt lat="45.56532" lon="2.93704">
        <ele>878.05</ele>
        <time>2013-09-01T07:17:08Z</time>
      </trkpt>
      <trkpt lat="45.56458" lon="2.93738">
        <ele>875.56</ele>
        <time>2013-09-01T07:17:17Z</time>
      </trkpt>
      <trkpt lat="45.56382" lon="2.93749">
        <ele>866.72</ele>
        <time>2013-09-01T07:17:27Z</time>
      </trkpt>
      <trkpt lat="45.56307" lon="2.93738">
        <ele>852.64</ele>
        <time>2013-09-01T07:17:41Z</time>
      </trkpt>
      <trkpt lat="45.56231" lon="2.93725">
        <ele>846.8</ele>
        <time>2013-09-01T07:17:58Z</time>
      </trkpt>
      <trkpt lat="45.56178" lon="2.9365">
        <ele>847.96</ele>
        <time>2013-09-01T07:18:18Z</time>
      </trkpt>
      <trkpt lat="45.56126" lon="2.93575">
        <ele>846.79</ele>
        <time>2013-09-01T07:18:33Z</time>
      </trkpt>
      <trkpt lat="45.56084" lon="2.93485">
        <ele>850.1</ele>
        <time>2013-09-01T07:18:48Z</time>
      </trkpt>
      <trkpt lat="45.56044" lon="2.93395">
        <ele>852.39</ele>
        <time>2013-09-01T07:19:03Z</time>
      </trkpt>
      <trkpt lat="45.56016" lon="2.93296">
        <ele>853.5</ele>
        <time>2013-09-01T07:19:21Z</time>
      </trkpt>
      <trkpt lat="45.55992" lon="2.932">
        <ele>853.51</ele>
        <time>2013-09-01T07:19:40Z</time>
      </trkpt>
      <trkpt lat="45.5597" lon="2.93099">
        <ele>856.25</ele>
        <time>2013-09-01T07:20:07Z</time>
      </trkpt>
      <trkpt lat="45.55895" lon="2.9309">
        <ele>860.26</ele>
        <time>2013-09-01T07:20:41Z</time>
      </trkpt>
      <trkpt lat="45.55823" lon="2.93045">
        <ele>865.5</ele>
        <time>2013-09-01T07:21:20Z</time>
      </trkpt>
      <trkpt lat="45.55753" lon="2.92994">
        <ele>872.52</ele>
        <time>2013-09-01T07:21:57Z</time>
      </trkpt>
      <trkpt lat="45.55703" lon="2.92919">
        <ele>885.97</ele>
        <time>2013-09-01T07:22:48Z</time>
      </trkpt>
      <trkpt lat="45.55641" lon="2.92865">
        <ele>893.14</ele>
        <time>2013-09-01T07:23:32Z</time>
      </trkpt>
      <trkpt lat="45.55591" lon="2.92788">
        <ele>908.08</ele>
        <time>2013-09-01T07:24:32Z</time>
      </trkpt>
      <trkpt lat="45.5556" lon="2.92693">
        <ele>926.5</ele>
        <time>2013-09-01T07:25:37Z</time>
      </trkpt>
      <trkpt lat="45.55494" lon="2.92653">
        <ele>941.43</ele>
        <time>2013-09-01T07:27:15Z</time>
      </trkpt>
      <trkpt lat="45.55425" lon="2.92685">
        <ele>968.86</ele>
        <time>2013-09-01T07:29:17Z</time>
      </trkpt>
      <trkpt lat="45.55374" lon="2.92612">
        <ele>977.12</ele>
        <time>2013-09-01T07:29:59Z</time>
      </trkpt>
      <trkpt lat="45.55345" lon="2.92515">
        <ele>981.14</ele>
        <time>2013-09-01T07:30:30Z</time>
      </trkpt>
      <trkpt lat="45.55322" lon="2.92417">
        <ele>985.33</ele>
        <time>2013-09-01T07:31:08Z</time>
      </trkpt>
      <trkpt lat="45.55273" lon="2.92337">
        <ele>995.69</ele>
        <time>2013-09-01T07:31:56Z</time>
      </trkpt>
      <trkpt lat="45.55236" lon="2.92247">
        <ele>1009.21</ele>
        <time>2013-09-01T07:32:35Z</time>
      </trkpt>
      <trkpt lat="45.55188" lon="2.92163">
        <ele>1017.33</ele>
        <time>2013-09-01T07:33:24Z</time>
      </trkpt>
      <trkpt lat="45.55151" lon="2.92065">
        <ele>1011.68</ele>
        <time>2013-09-01T07:34:01Z</time>
      </trkpt>
      <trkpt lat="45.55135" lon="2.91957">
        <ele>1016.52</ele>
        <time>2013-09-01T07:34:44Z</time>
      </trkpt>
      <trkpt lat="45.55089" lon="2.91865">
        <ele>1017.57</ele>
        <time>2013-09-01T07:35:15Z</time>
      </trkpt>
      <trkpt lat="45.55057" lon="2.91764">
        <ele>1015.72</ele>
        <time>2013-09-01T07:35:37Z</time>
      </trkpt>
      <trkpt lat="45.55038" lon="2.91666">
        <ele>1021.05</ele>
        <time>2013-09-01T07:36:02Z</time>
      </trkpt>
      <trkpt lat="45.54998" lon="2.91567">
        <ele>1025.53</ele>
        <time>2013-09-01T07:36:31Z</time>
      </trkpt>
      <trkpt lat="45.54997" lon="2.91464">
        <ele>1028.94</ele>
        <time>2013-09-01T07:36:55Z</time>
      </trkpt>
      <trkpt lat="45.54983" lon="2.91363">
        <ele>1032.47</ele>
        <time>2013-09-01T07:37:21Z</time>
      </trkpt>
      <trkpt lat="45.54938" lon="2.91281">
        <ele>1032.89</ele>
        <time>2013-09-01T07:37:58Z</time>
      </trkpt>
      <trkpt lat="45.54898" lon="2.91193">
        <ele>1045.38</ele>
        <time>2013-09-01T07:38:27Z</time>
      </trkpt>
      <trkpt lat="45.54857" lon="2.9111">
        <ele>1060.81</ele>
        <time>2013-09-01T07:39:21Z</time>
      </trkpt>
      <trkpt lat="45.54815" lon="2.91024">
        <ele>1069.8</ele>
        <time>2013-09-01T07:40:04Z</time>
      </trkpt>
      <trkpt lat="45.54761" lon="2.90955">
        <ele>1081.87</ele>
        <time>2013-09-01T07:41:00Z</time>
      </trkpt>
      <trkpt lat="45.54689" lon="2.90938">
        <ele>1094.93</ele>
        <time>2013-09-01T07:42:26Z</time>
      </trkpt>
      <trkpt lat="45.54623" lon="2.90891">
        <ele>1104.73</ele>
        <time>2013-09-01T07:43:11Z</time>
      </trkpt>
      <trkpt lat="45.54559" lon="2.90839">
        <ele>1115.89</ele>
        <time>2013-09-01T07:44:00Z</time>
      </trkpt>
      <trkpt lat="45.5454" lon="2.90736">
        <ele>1122.27</ele>
        <time>2013-09-01T07:44:32Z</time>
      </trkpt>
      <trkpt lat="45.54524" lon="2.90636">
        <ele>1123.48</ele>
        <time>2013-09-01T07:44:54Z</time>
      </trkpt>
      <trkpt lat="45.54494" lon="2.90539">
        <ele>1121.62</ele>
        <time>2013-09-01T07:45:14Z</time>
      </trkpt>
      <trkpt lat="45.54467" lon="2.9044">
        <ele>1124.02</ele>
        <time>2013-09-01T07:45:36Z</time>
      </trkpt>
      <trkpt lat="45.54422" lon="2.90359">
        <ele>1127.17</ele>
        <time>2013-09-01T07:46:05Z</time>
      </trkpt>
      <trkpt lat="45.54406" lon="2.90251">
        <ele>1136.78</ele>
        <time>2013-09-01T07:46:23Z</time>
      </trkpt>
      <trkpt lat="45.54439" lon="2.90157">
        <ele>1141.15</ele>
        <time>2013-09-01T07:46:47Z</time>
      </trkpt>
      <trkpt lat="45.54504" lon="2.9011">
        <ele>1142.7</ele>
        <time>2013-09-01T07:47:28Z</time>
      </trkpt>
      <trkpt lat="45.5456" lon="2.90039">
        <ele>1144.27</ele>
        <time>2013-09-01T07:48:17Z</time>
      </trkpt>
      <trkpt lat="45.545" lon="2.89981">
        <ele>1151.09</ele>
        <time>2013-09-01T07:48:54Z</time>
      </trkpt>
      <trkpt lat="45.54431" lon="2.8994">
        <ele>1157.22</ele>
        <time>2013-09-01T07:49:31Z</time>
      </trkpt>
      <trkpt lat="45.54367" lon="2.89885">
        <ele>1164.68</ele>
        <time>2013-09-01T07:50:07Z</time>
      </trkpt>
      <trkpt lat="45.54302" lon="2.89842">
        <ele>1172.95</ele>
        <time>2013-09-01T07:50:42Z</time>
      </trkpt>
      <trkpt lat="45.54232" lon="2.89816">
        <ele>1179.71</ele>
        <time>2013-09-01T07:51:14Z</time>
      </trkpt>
      <trkpt lat="45.54161" lon="2.89792">
        <ele>1186.77</ele>
        <time>2013-09-01T07:51:46Z</time>
      </trkpt>
      <trkpt lat="45.54086" lon="2.8979">
        <ele>1194.72</ele>
        <time>2013-09-01T07:52:14Z</time>
      </trkpt>
      <trkpt lat="45.54011" lon="2.89794">
        <ele>1200.02</ele>
        <time>2013-09-01T07:52:33Z</time>
      </trkpt>
      <trkpt lat="45.53936" lon="2.89807">
        <ele>1201.49</ele>
        <time>2013-09-01T07:52:50Z</time>
      </trkpt>
      <trkpt lat="45.53863" lon="2.89799">
        <ele>1201.51</ele>
        <time>2013-09-01T07:53:06Z</time>
      </trkpt>
      <trkpt lat="45.53789" lon="2.89771">
        <ele>1199.74</ele>
        <time>2013-09-01T07:53:24Z</time>
      </trkpt>
      <trkpt lat="45.53729" lon="2.89713">
        <ele>1198.83</ele>
        <time>2013-09-01T07:53:36Z</time>
      </trkpt>
      <trkpt lat="45.53663" lon="2.89762">
        <ele>1194.51</ele>
        <time>2013-09-01T07:54:12Z</time>
      </trkpt>
      <trkpt lat="45.53595" lon="2.89814">
        <ele>1190.51</ele>
        <time>2013-09-01T07:54:53Z</time>
      </trkpt>
      <trkpt lat="45.53532" lon="2.89876">
        <ele>1196.52</ele>
        <time>2013-09-01T07:55:32Z</time>
      </trkpt>
      <trkpt lat="45.53572" lon="2.89962">
        <ele>1200.35</ele>
        <time>2013-09-01T07:55:54Z</time>
      </trkpt>
      <trkpt lat="45.53552" lon="2.90063">
        <ele>1200.12</ele>
        <time>2013-09-01T07:56:16Z</time>
      </trkpt>
      <trkpt lat="45.53514" lon="2.90159">
        <ele>1207.16</ele>
        <time>2013-09-01T07:56:38Z</time>
      </trkpt>
      <trkpt lat="45.53533" lon="2.90262">
        <ele>1214.88</ele>
        <time>2013-09-01T07:57:00Z</time>
      </trkpt>
      <trkpt lat="45.53488" lon="2.90346">
        <ele>1215.44</ele>
        <time>2013-09-01T07:57:28Z</time>
      </trkpt>
      <trkpt lat="45.53417" lon="2.90382">
        <ele>1210.77</ele>
        <time>2013-09-01T07:57:49Z</time>
      </trkpt>
      <trkpt lat="45.53347" lon="2.90408">
        <ele>1206.68</ele>
        <time>2013-09-01T07:58:10Z</time>
      </trkpt>
      <trkpt lat="45.53283" lon="2.90462">
        <ele>1210.03</ele>
        <time>2013-09-01T07:58:25Z</time>
      </trkpt>
      <trkpt lat="45.53213" lon="2.90505">
        <ele>1213.48</ele>
        <time>2013-09-01T07:58:42Z</time>
      </trkpt>
      <trkpt lat="45.53145" lon="2.90545">
        <ele>1217.93</ele>
        <time>2013-09-01T07:58:55Z</time>
      </trkpt>
      <trkpt lat="45.53073" lon="2.90576">
        <ele>1218.23</ele>
        <time>2013-09-01T07:59:06Z</time>
      </trkpt>
      <trkpt lat="45.53002" lon="2.90558">
        <ele>1215.73</ele>
        <time>2013-09-01T07:59:19Z</time>
      </trkpt>
      <trkpt lat="45.52947" lon="2.90483">
        <ele>1211.04</ele>
        <time>2013-09-01T07:59:35Z</time>
      </trkpt>
      <trkpt lat="45.52885" lon="2.90415">
        <ele>1206.28</ele>
        <time>2013-09-01T07:59:57Z</time>
      </trkpt>
      <trkpt lat="45.5284" lon="2.90329">
        <ele>1202.61</ele>
        <time>2013-09-01T08:00:37Z</time>
      </trkpt>
      <trkpt lat="45.52783" lon="2.90395">
        <ele>1209.84</ele>
        <time>2013-09-01T08:01:42Z</time>
      </trkpt>
      <trkpt lat="45.52735" lon="2.90477">
        <ele>1218.99</ele>
        <time>2013-09-01T08:02:30Z</time>
      </trkpt>
      <trkpt lat="45.5269" lon="2.90558">
        <ele>1223.16</ele>
        <time>2013-09-01T08:03:00Z</time>
      </trkpt>
      <trkpt lat="45.52643" lon="2.90642">
        <ele>1227.49</ele>
        <time>2013-09-01T08:03:23Z</time>
      </trkpt>
      <trkpt lat="45.52598" lon="2.90724">
        <ele>1228.51</ele>
        <time>2013-09-01T08:03:45Z</time>
      </trkpt>
      <trkpt lat="45.52552" lon="2.90809">
        <ele>1228.83</ele>
        <time>2013-09-01T08:04:04Z</time>
      </trkpt>
      <trkpt lat="45.52514" lon="2.90904">
        <ele>1228.51</ele>
        <time>2013-09-01T08:04:19Z</time>
      </trkpt>
      <trkpt lat="45.52478" lon="2.90996">
        <ele>1227.53</ele>
        <time>2013-09-01T08:04:36Z</time>
      </trkpt>
      <trkpt lat="45.5244" lon="2.91088">
        <ele>1226.07</ele>
        <time>2013-09-01T08:05:02Z</time>
      </trkpt>
      <trkpt lat="45.52403" lon="2.91178">
        <ele>1223.52</ele>
        <time>2013-09-01T08:05:21Z</time>
      </trkpt>
      <trkpt lat="45.52348" lon="2.91247">
        <ele>1221.52</ele>
        <time>2013-09-01T08:05:44Z</time>
      </trkpt>
      <trkpt lat="45.52286" lon="2.91303">
        <ele>1218.65</ele>
        <time>2013-09-01T08:06:03Z</time>
      </trkpt>
      <trkpt lat="45.52217" lon="2.91348">
        <ele>1217.13</ele>
        <time>2013-09-01T08:06:24Z</time>
      </trkpt>
      <trkpt lat="45.52144" lon="2.91337">
        <ele>1211.22</ele>
        <time>2013-09-01T08:06:50Z</time>
      </trkpt>
      <trkpt lat="45.52088" lon="2.91269">
        <ele>1208.78</ele>
        <time>2013-09-01T08:07:04Z</time>
      </trkpt>
      <trkpt lat="45.52032" lon="2.912">
        <ele>1207.29</ele>
        <time>2013-09-01T08:07:17Z</time>
      </trkpt>
      <trkpt lat="45.51984" lon="2.91116">
        <ele>1205.55</ele>
        <time>2013-09-01T08:07:34Z</time>
      </trkpt>
      <trkpt lat="45.51921" lon="2.91056">
        <ele>1207.83</ele>
        <time>2013-09-01T08:07:57Z</time>
      </trkpt>
      <trkpt lat="45.51839" lon="2.91056">
        <ele>1207.91</ele>
        <time>2013-09-01T08:08:10Z</time>
      </trkpt>
      <trkpt lat="45.51759" lon="2.91048">
        <ele>1207.05</ele>
        <time>2013-09-01T08:08:17Z</time>
      </trkpt>
      <trkpt lat="45.51686" lon="2.91078">
        <ele>1207.03</ele>
        <time>2013-09-01T08:08:25Z</time>
      </trkpt>
      <trkpt lat="45.51687" lon="2.91183">
        <ele>1197.79</ele>
        <time>2013-09-01T08:08:41Z</time>
      </trkpt>
      <trkpt lat="45.51718" lon="2.91281">
        <ele>1190.16</ele>
        <time>2013-09-01T08:08:57Z</time>
      </trkpt>
      <trkpt lat="45.51744" lon="2.91391">
        <ele>1188.58</ele>
        <time>2013-09-01T08:09:08Z</time>
      </trkpt>
      <trkpt lat="45.51771" lon="2.91494">
        <ele>1185.5</ele>
        <time>2013-09-01T08:09:17Z</time>
      </trkpt>
      <trkpt lat="45.51811" lon="2.9158">
        <ele>1179.61</ele>
        <time>2013-09-01T08:09:25Z</time>
      </trkpt>
      <trkpt lat="45.5187" lon="2.91651">
        <ele>1173.14</ele>
        <time>2013-09-01T08:09:35Z</time>
      </trkpt>
      <trkpt lat="45.51907" lon="2.91745">
        <ele>1169.39</ele>
        <time>2013-09-01T08:09:45Z</time>
      </trkpt>
      <trkpt lat="45.5195" lon="2.91829">
        <ele>1166.38</ele>
        <time>2013-09-01T08:09:54Z</time>
      </trkpt>
      <trkpt lat="45.51963" lon="2.91934">
        <ele>1159.07</ele>
        <time>2013-09-01T08:10:02Z</time>
      </trkpt>
      <trkpt lat="45.51936" lon="2.9203">
        <ele>1153.45</ele>
        <time>2013-09-01T08:10:10Z</time>
      </trkpt>
      <trkpt lat="45.51913" lon="2.92131">
        <ele>1147.28</ele>
        <time>2013-09-01T08:10:24Z</time>
      </trkpt>
      <trkpt lat="45.51879" lon="2.92226">
        <ele>1146.91</ele>
        <time>2013-09-01T08:10:36Z</time>
      </trkpt>
      <trkpt lat="45.51835" lon="2.92322">
        <ele>1144.95</ele>
        <time>2013-09-01T08:10:45Z</time>
      </trkpt>
      <trkpt lat="45.51804" lon="2.92423">
        <ele>1141.76</ele>
        <time>2013-09-01T08:10:52Z</time>
      </trkpt>
      <trkpt lat="45.51778" lon="2.92535">
        <ele>1139.42</ele>
        <time>2013-09-01T08:10:59Z</time>
      </trkpt>
      <trkpt lat="45.51757" lon="2.92644">
        <ele>1136.07</ele>
        <time>2013-09-01T08:11:06Z</time>
      </trkpt>
      <trkpt lat="45.51686" lon="2.92603">
        <ele>1118.66</ele>
        <time>2013-09-01T08:11:26Z</time>
      </trkpt>
      <trkpt lat="45.51633" lon="2.92687">
        <ele>1088.16</ele>
        <time>2013-09-01T08:11:58Z</time>
      </trkpt>
      <trkpt lat="45.51612" lon="2.92792">
        <ele>1080.02</ele>
        <time>2013-09-01T08:12:08Z</time>
      </trkpt>
      <trkpt lat="45.51582" lon="2.92696">
        <ele>1058.71</ele>
        <time>2013-09-01T08:12:35Z</time>
      </trkpt>
      <trkpt lat="45.51527" lon="2.92623">
        <ele>1037.46</ele>
        <time>2013-09-01T08:12:57Z</time>
      </trkpt>
      <trkpt lat="45.51459" lon="2.92668">
        <ele>1022.61</ele>
        <time>2013-09-01T08:13:31Z</time>
      </trkpt>
      <trkpt lat="45.51427" lon="2.9276">
        <ele>1025.51</ele>
        <time>2013-09-01T08:18:31Z</time>
      </trkpt>
      <trkpt lat="45.51353" lon="2.92758">
        <ele>1024.67</ele>
        <time>2013-09-01T08:18:48Z</time>
      </trkpt>
      <trkpt lat="45.51301" lon="2.92835">
        <ele>1015.69</ele>
        <time>2013-09-01T08:19:21Z</time>
      </trkpt>
      <trkpt lat="45.51239" lon="2.92886">
        <ele>1016.68</ele>
        <time>2013-09-01T08:19:46Z</time>
      </trkpt>
      <trkpt lat="45.51226" lon="2.92987">
        <ele>1019.89</ele>
        <time>2013-09-01T08:20:12Z</time>
      </trkpt>
      <trkpt lat="45.51219" lon="2.93092">
        <ele>1023.21</ele>
        <time>2013-09-01T08:20:34Z</time>
      </trkpt>
      <trkpt lat="45.51206" lon="2.93193">
        <ele>1026.29</ele>
        <time>2013-09-01T08:20:55Z</time>
      </trkpt>
      <trkpt lat="45.5114" lon="2.93146">
        <ele>1030.47</ele>
        <time>2013-09-01T08:21:25Z</time>
      </trkpt>
      <trkpt lat="45.51066" lon="2.93133">
        <ele>1033.8</ele>
        <time>2013-09-01T08:21:53Z</time>
      </trkpt>
      <trkpt lat="45.50992" lon="2.93146">
        <ele>1048.14</ele>
        <time>2013-09-01T08:22:13Z</time>
      </trkpt>
      <trkpt lat="45.50928" lon="2.93092">
        <ele>1044.58</ele>
        <time>2013-09-01T08:22:32Z</time>
      </trkpt>
      <trkpt lat="45.50857" lon="2.93067">
        <ele>1045.28</ele>
        <time>2013-09-01T08:22:50Z</time>
      </trkpt>
      <trkpt lat="45.5079" lon="2.9302">
        <ele>1045.72</ele>
        <time>2013-09-01T08:23:12Z</time>
      </trkpt>
      <trkpt lat="45.50713" lon="2.92998">
        <ele>1047.43</ele>
        <time>2013-09-01T08:23:42Z</time>
      </trkpt>
      <trkpt lat="45.50641" lon="2.92964">
        <ele>1053.67</ele>
        <time>2013-09-01T08:24:26Z</time>
      </trkpt>
      <trkpt lat="45.50573" lon="2.92923">
        <ele>1058.48</ele>
        <time>2013-09-01T08:25:13Z</time>
      </trkpt>
      <trkpt lat="45.50512" lon="2.92865">
        <ele>1063.21</ele>
        <time>2013-09-01T08:25:58Z</time>
      </trkpt>
      <trkpt lat="45.50439" lon="2.92854">
        <ele>1077.13</ele>
        <time>2013-09-01T08:26:42Z</time>
      </trkpt>
      <trkpt lat="45.50368" lon="2.92833">
        <ele>1089.73</ele>
        <time>2013-09-01T08:27:16Z</time>
      </trkpt>
      <trkpt lat="45.50297" lon="2.92809">
        <ele>1101.89</ele>
        <time>2013-09-01T08:27:54Z</time>
      </trkpt>
      <trkpt lat="45.50235" lon="2.92758">
        <ele>1110.01</ele>
        <time>2013-09-01T08:28:31Z</time>
      </trkpt>
      <trkpt lat="45.50207" lon="2.92663">
        <ele>1118.08</ele>
        <time>2013-09-01T08:29:11Z</time>
      </trkpt>
      <trkpt lat="45.50164" lon="2.9258">
        <ele>1125.77</ele>
        <time>2013-09-01T08:29:52Z</time>
      </trkpt>
      <trkpt lat="45.50121" lon="2.92496">
        <ele>1133.29</ele>
        <time>2013-09-01T08:30:34Z</time>
      </trkpt>
      <trkpt lat="45.50074" lon="2.92414">
        <ele>1140.2</ele>
        <time>2013-09-01T08:31:12Z</time>
      </trkpt>
      <trkpt lat="45.50024" lon="2.92337">
        <ele>1145.61</ele>
        <time>2013-09-01T08:31:48Z</time>
      </trkpt>
      <trkpt lat="45.49987" lon="2.92249">
        <ele>1151.96</ele>
        <time>2013-09-01T08:32:28Z</time>
      </trkpt>
      <trkpt lat="45.49951" lon="2.92159">
        <ele>1161.94</ele>
        <time>2013-09-01T08:33:09Z</time>
      </trkpt>
      <trkpt lat="45.49894" lon="2.92093">
        <ele>1166.43</ele>
        <time>2013-09-01T08:33:42Z</time>
      </trkpt>
      <trkpt lat="45.49897" lon="2.9199">
        <ele>1170.13</ele>
        <time>2013-09-01T08:34:01Z</time>
      </trkpt>
      <trkpt lat="45.49916" lon="2.91889">
        <ele>1175</ele>
        <time>2013-09-01T08:34:27Z</time>
      </trkpt>
      <trkpt lat="45.49945" lon="2.91794">
        <ele>1180.6</ele>
        <time>2013-09-01T08:35:00Z</time>
      </trkpt>
      <trkpt lat="45.49979" lon="2.91702">
        <ele>1186.09</ele>
        <time>2013-09-01T08:35:29Z</time>
      </trkpt>
      <trkpt lat="45.50012" lon="2.91608">
        <ele>1194.1</ele>
        <time>2013-09-01T08:35:54Z</time>
      </trkpt>
      <trkpt lat="45.50007" lon="2.91502">
        <ele>1197.27</ele>
        <time>2013-09-01T08:36:16Z</time>
      </trkpt>
      <trkpt lat="45.49991" lon="2.91399">
        <ele>1197.51</ele>
        <time>2013-09-01T08:36:32Z</time>
      </trkpt>
      <trkpt lat="45.49977" lon="2.91294">
        <ele>1197.5</ele>
        <time>2013-09-01T08:36:51Z</time>
      </trkpt>
      <trkpt lat="45.49962" lon="2.91191">
        <ele>1197.51</ele>
        <time>2013-09-01T08:37:16Z</time>
      </trkpt>
      <trkpt lat="45.49943" lon="2.9109">
        <ele>1199.49</ele>
        <time>2013-09-01T08:37:44Z</time>
      </trkpt>
      <trkpt lat="45.49927" lon="2.90987">
        <ele>1204.16</ele>
        <time>2013-09-01T08:37:59Z</time>
      </trkpt>
      <trkpt lat="45.49856" lon="2.90938">
        <ele>1197.41</ele>
        <time>2013-09-01T08:39:01Z</time>
      </trkpt>
      <trkpt lat="45.49806" lon="2.90861">
        <ele>1199.76</ele>
        <time>2013-09-01T08:39:51Z</time>
      </trkpt>
      <trkpt lat="45.4974" lon="2.90814">
        <ele>1211.47</ele>
        <time>2013-09-01T08:40:27Z</time>
      </trkpt>
      <trkpt lat="45.49668" lon="2.90786">
        <ele>1215.58</ele>
        <time>2013-09-01T08:40:55Z</time>
      </trkpt>
      <trkpt lat="45.49602" lon="2.90739">
        <ele>1223.17</ele>
        <time>2013-09-01T08:41:31Z</time>
      </trkpt>
      <trkpt lat="45.49539" lon="2.90681">
        <ele>1229.3</ele>
        <time>2013-09-01T08:42:03Z</time>
      </trkpt>
      <trkpt lat="45.49504" lon="2.90588">
        <ele>1236.71</ele>
        <time>2013-09-01T08:42:39Z</time>
      </trkpt>
      <trkpt lat="45.49487" lon="2.90485">
        <ele>1245.04</ele>
        <time>2013-09-01T08:43:09Z</time>
      </trkpt>
      <trkpt lat="45.49464" lon="2.90387">
        <ele>1250.12</ele>
        <time>2013-09-01T08:43:39Z</time>
      </trkpt>
      <trkpt lat="45.49404" lon="2.90324">
        <ele>1252.47</ele>
        <time>2013-09-01T08:44:06Z</time>
      </trkpt>
      <trkpt lat="45.49338" lon="2.90267">
        <ele>1256.66</ele>
        <time>2013-09-01T08:44:21Z</time>
      </trkpt>
      <trkpt lat="45.49267" lon="2.90243">
        <ele>1257.47</ele>
        <time>2013-09-01T08:44:32Z</time>
      </trkpt>
      <trkpt lat="45.49188" lon="2.90234">
        <ele>1254.33</ele>
        <time>2013-09-01T08:44:42Z</time>
      </trkpt>
      <trkpt lat="45.49113" lon="2.90239">
        <ele>1246.74</ele>
        <time>2013-09-01T08:44:54Z</time>
      </trkpt>
      <trkpt lat="45.49042" lon="2.90247">
        <ele>1245.46</ele>
        <time>2013-09-01T08:45:05Z</time>
      </trkpt>
      <trkpt lat="45.48973" lon="2.90213">
        <ele>1251.29</ele>
        <time>2013-09-01T08:45:18Z</time>
      </trkpt>
      <trkpt lat="45.48904" lon="2.90166">
        <ele>1248.43</ele>
        <time>2013-09-01T08:45:35Z</time>
      </trkpt>
      <trkpt lat="45.48831" lon="2.90131">
        <ele>1243.61</ele>
        <time>2013-09-01T08:45:46Z</time>
      </trkpt>
      <trkpt lat="45.48763" lon="2.90099">
        <ele>1243.01</ele>
        <time>2013-09-01T08:45:56Z</time>
      </trkpt>
      <trkpt lat="45.48687" lon="2.90063">
        <ele>1244.17</ele>
        <time>2013-09-01T08:46:07Z</time>
      </trkpt>
      <trkpt lat="45.48714" lon="2.89966">
        <ele>1243.54</ele>
        <time>2013-09-01T08:46:22Z</time>
      </trkpt>
      <trkpt lat="45.48757" lon="2.8988">
        <ele>1242.51</ele>
        <time>2013-09-01T08:46:41Z</time>
      </trkpt>
      <trkpt lat="45.48799" lon="2.89797">
        <ele>1243.19</ele>
        <time>2013-09-01T08:47:03Z</time>
      </trkpt>
      <trkpt lat="45.48845" lon="2.89713">
        <ele>1244.37</ele>
        <time>2013-09-01T08:47:24Z</time>
      </trkpt>
      <trkpt lat="45.48892" lon="2.89629">
        <ele>1247.15</ele>
        <time>2013-09-01T08:47:45Z</time>
      </trkpt>
      <trkpt lat="45.48936" lon="2.89543">
        <ele>1249.88</ele>
        <time>2013-09-01T08:48:06Z</time>
      </trkpt>
      <trkpt lat="45.48981" lon="2.89458">
        <ele>1252.36</ele>
        <time>2013-09-01T08:48:27Z</time>
      </trkpt>
      <trkpt lat="45.49025" lon="2.89376">
        <ele>1254.37</ele>
        <time>2013-09-01T08:48:47Z</time>
      </trkpt>
      <trkpt lat="45.49081" lon="2.89307">
        <ele>1257.25</ele>
        <time>2013-09-01T08:49:09Z</time>
      </trkpt>
      <trkpt lat="45.49155" lon="2.8929">
        <ele>1260.04</ele>
        <time>2013-09-01T08:49:32Z</time>
      </trkpt>
      <trkpt lat="45.49229" lon="2.89279">
        <ele>1262.84</ele>
        <time>2013-09-01T08:49:53Z</time>
      </trkpt>
      <trkpt lat="45.49301" lon="2.89297">
        <ele>1266.14</ele>
        <time>2013-09-01T08:50:15Z</time>
      </trkpt>
      <trkpt lat="45.49371" lon="2.89329">
        <ele>1270.39</ele>
        <time>2013-09-01T08:50:34Z</time>
      </trkpt>
      <trkpt lat="45.49434" lon="2.8938">
        <ele>1268.03</ele>
        <time>2013-09-01T08:50:47Z</time>
      </trkpt>
      <trkpt lat="45.49509" lon="2.89404">
        <ele>1264.82</ele>
        <time>2013-09-01T08:51:07Z</time>
      </trkpt>
      <trkpt lat="45.49583" lon="2.89374">
        <ele>1257.24</ele>
        <time>2013-09-01T08:51:36Z</time>
      </trkpt>
      <trkpt lat="45.49659" lon="2.89359">
        <ele>1250.82</ele>
        <time>2013-09-01T08:52:12Z</time>
      </trkpt>
      <trkpt lat="45.49726" lon="2.89316">
        <ele>1246.86</ele>
        <time>2013-09-01T08:52:26Z</time>
      </trkpt>
      <trkpt lat="45.49793" lon="2.89264">
        <ele>1243.8</ele>
        <time>2013-09-01T08:52:38Z</time>
      </trkpt>
      <trkpt lat="45.49858" lon="2.89217">
        <ele>1241.99</ele>
        <time>2013-09-01T08:52:49Z</time>
      </trkpt>
      <trkpt lat="45.49924" lon="2.89172">
        <ele>1240.57</ele>
        <time>2013-09-01T08:53:01Z</time>
      </trkpt>
      <trkpt lat="45.49985" lon="2.8911">
        <ele>1238.78</ele>
        <time>2013-09-01T08:53:13Z</time>
      </trkpt>
      <trkpt lat="45.50024" lon="2.89013">
        <ele>1235.37</ele>
        <time>2013-09-01T08:53:22Z</time>
      </trkpt>
      <trkpt lat="45.50044" lon="2.889">
        <ele>1230.22</ele>
        <time>2013-09-01T08:53:29Z</time>
      </trkpt>
      <trkpt lat="45.50046" lon="2.8879">
        <ele>1224.21</ele>
        <time>2013-09-01T08:53:35Z</time>
      </trkpt>
      <trkpt lat="45.50049" lon="2.88685">
        <ele>1213.99</ele>
        <time>2013-09-01T08:53:44Z</time>
      </trkpt>
      <trkpt lat="45.49977" lon="2.8864">
        <ele>1201.05</ele>
        <time>2013-09-01T08:54:03Z</time>
      </trkpt>
      <trkpt lat="45.50005" lon="2.88546">
        <ele>1191.95</ele>
        <time>2013-09-01T08:55:38Z</time>
      </trkpt>
      <trkpt lat="45.49994" lon="2.88436">
        <ele>1194.36</ele>
        <time>2013-09-01T08:56:00Z</time>
      </trkpt>
      <trkpt lat="45.49977" lon="2.88335">
        <ele>1190.99</ele>
        <time>2013-09-01T08:56:21Z</time>
      </trkpt>
      <trkpt lat="45.50038" lon="2.884">
        <ele>1186.22</ele>
        <time>2013-09-01T08:56:31Z</time>
      </trkpt>
      <trkpt lat="45.50085" lon="2.88483">
        <ele>1180.87</ele>
        <time>2013-09-01T08:56:40Z</time>
      </trkpt>
      <trkpt lat="45.50157" lon="2.88498">
        <ele>1176.99</ele>
        <time>2013-09-01T08:56:53Z</time>
      </trkpt>
      <trkpt lat="45.50231" lon="2.88475">
        <ele>1174.31</ele>
        <time>2013-09-01T08:57:04Z</time>
      </trkpt>
      <trkpt lat="45.50304" lon="2.88468">
        <ele>1174.04</ele>
        <time>2013-09-01T08:57:16Z</time>
      </trkpt>
      <trkpt lat="45.50358" lon="2.88539">
        <ele>1171.88</ele>
        <time>2013-09-01T08:57:30Z</time>
      </trkpt>
      <trkpt lat="45.50429" lon="2.88571">
        <ele>1169.17</ele>
        <time>2013-09-01T08:57:46Z</time>
      </trkpt>
      <trkpt lat="45.50471" lon="2.88657">
        <ele>1166.14</ele>
        <time>2013-09-01T08:58:04Z</time>
      </trkpt>
      <trkpt lat="45.50495" lon="2.88762">
        <ele>1164.07</ele>
        <time>2013-09-01T08:58:16Z</time>
      </trkpt>
      <trkpt lat="45.5052" lon="2.88863">
        <ele>1166.39</ele>
        <time>2013-09-01T08:58:28Z</time>
      </trkpt>
      <trkpt lat="45.50551" lon="2.88958">
        <ele>1165.24</ele>
        <time>2013-09-01T08:58:39Z</time>
      </trkpt>
      <trkpt lat="45.5058" lon="2.89056">
        <ele>1163.57</ele>
        <time>2013-09-01T08:58:52Z</time>
      </trkpt>
      <trkpt lat="45.50608" lon="2.89151">
        <ele>1163.51</ele>
        <time>2013-09-01T08:59:05Z</time>
      </trkpt>
      <trkpt lat="45.50655" lon="2.8923">
        <ele>1161.63</ele>
        <time>2013-09-01T08:59:23Z</time>
      </trkpt>
      <trkpt lat="45.50694" lon="2.89318">
        <ele>1161.95</ele>
        <time>2013-09-01T08:59:56Z</time>
      </trkpt>
      <trkpt lat="45.50697" lon="2.89421">
        <ele>1165.4</ele>
        <time>2013-09-01T09:00:35Z</time>
      </trkpt>
      <trkpt lat="45.50716" lon="2.89528">
        <ele>1168.14</ele>
        <time>2013-09-01T09:00:54Z</time>
      </trkpt>
      <trkpt lat="45.50737" lon="2.89634">
        <ele>1167.12</ele>
        <time>2013-09-01T09:01:10Z</time>
      </trkpt>
      <trkpt lat="45.50723" lon="2.89737">
        <ele>1164.87</ele>
        <time>2013-09-01T09:01:24Z</time>
      </trkpt>
      <trkpt lat="45.50741" lon="2.89837">
        <ele>1159.54</ele>
        <time>2013-09-01T09:02:48Z</time>
      </trkpt>
      <trkpt lat="45.50767" lon="2.89938">
        <ele>1151.93</ele>
        <time>2013-09-01T09:04:16Z</time>
      </trkpt>
      <trkpt lat="45.50781" lon="2.90048">
        <ele>1150.25</ele>
        <time>2013-09-01T09:04:39Z</time>
      </trkpt>
      <trkpt lat="45.50842" lon="2.90112">
        <ele>1140.58</ele>
        <time>2013-09-01T09:05:09Z</time>
      </trkpt>
      <trkpt lat="45.50905" lon="2.90176">
        <ele>1128.89</ele>
        <time>2013-09-01T09:07:17Z</time>
      </trkpt>
      <trkpt lat="45.50954" lon="2.90251">
        <ele>1119.17</ele>
        <time>2013-09-01T09:08:50Z</time>
      </trkpt>
      <trkpt lat="45.5096" lon="2.90354">
        <ele>1102.51</ele>
        <time>2013-09-01T09:11:16Z</time>
      </trkpt>
      <trkpt lat="45.50942" lon="2.90455">
        <ele>1085.52</ele>
        <time>2013-09-01T09:12:40Z</time>
      </trkpt>
      <trkpt lat="45.50908" lon="2.90548">
        <ele>1086.31</ele>
        <time>2013-09-01T09:14:23Z</time>
      </trkpt>
      <trkpt lat="45.50922" lon="2.90648">
        <ele>1087.75</ele>
        <time>2013-09-01T09:15:35Z</time>
      </trkpt>
      <trkpt lat="45.50946" lon="2.90749">
        <ele>1083.42</ele>
        <time>2013-09-01T09:16:02Z</time>
      </trkpt>
      <trkpt lat="45.50964" lon="2.90852">
        <ele>1081.53</ele>
        <time>2013-09-01T09:16:29Z</time>
      </trkpt>
      <trkpt lat="45.50989" lon="2.90955">
        <ele>1079.31</ele>
        <time>2013-09-01T09:16:54Z</time>
      </trkpt>
      <trkpt lat="45.5101" lon="2.91054">
        <ele>1080.17</ele>
        <time>2013-09-01T09:17:07Z</time>
      </trkpt>
      <trkpt lat="45.5103" lon="2.91159">
        <ele>1080.98</ele>
        <time>2013-09-01T09:17:18Z</time>
      </trkpt>
      <trkpt lat="45.51049" lon="2.91258">
        <ele>1075.92</ele>
        <time>2013-09-01T09:17:31Z</time>
      </trkpt>
      <trkpt lat="45.51068" lon="2.91365">
        <ele>1075.52</ele>
        <time>2013-09-01T09:17:43Z</time>
      </trkpt>
      <trkpt lat="45.51112" lon="2.91457">
        <ele>1073.79</ele>
        <time>2013-09-01T09:17:54Z</time>
      </trkpt>
      <trkpt lat="45.51131" lon="2.91556">
        <ele>1073.52</ele>
        <time>2013-09-01T09:18:06Z</time>
      </trkpt>
      <trkpt lat="45.5116" lon="2.91655">
        <ele>1071.9</ele>
        <time>2013-09-01T09:18:17Z</time>
      </trkpt>
      <trkpt lat="45.51198" lon="2.91745">
        <ele>1072.48</ele>
        <time>2013-09-01T09:18:29Z</time>
      </trkpt>
      <trkpt lat="45.51227" lon="2.91839">
        <ele>1073.43</ele>
        <time>2013-09-01T09:18:40Z</time>
      </trkpt>
      <trkpt lat="45.51262" lon="2.91934">
        <ele>1072.13</ele>
        <time>2013-09-01T09:18:52Z</time>
      </trkpt>
      <trkpt lat="45.51312" lon="2.92011">
        <ele>1071.54</ele>
        <time>2013-09-01T09:19:02Z</time>
      </trkpt>
      <trkpt lat="45.51342" lon="2.92108">
        <ele>1069.38</ele>
        <time>2013-09-01T09:19:10Z</time>
      </trkpt>
      <trkpt lat="45.51387" lon="2.922">
        <ele>1068.32</ele>
        <time>2013-09-01T09:19:19Z</time>
      </trkpt>
      <trkpt lat="45.51446" lon="2.92264">
        <ele>1059.5</ele>
        <time>2013-09-01T09:19:28Z</time>
      </trkpt>
      <trkpt lat="45.51489" lon="2.92354">
        <ele>1050.22</ele>
        <time>2013-09-01T09:19:37Z</time>
      </trkpt>
      <trkpt lat="45.51508" lon="2.92462">
        <ele>1043.93</ele>
        <time>2013-09-01T09:19:49Z</time>
      </trkpt>
      <trkpt lat="45.51492" lon="2.92562">
        <ele>1039.81</ele>
        <time>2013-09-01T09:19:58Z</time>
      </trkpt>
      <trkpt lat="45.51466" lon="2.92659">
        <ele>1036.59</ele>
        <time>2013-09-01T09:20:08Z</time>
      </trkpt>
      <trkpt lat="45.51436" lon="2.92756">
        <ele>1029.69</ele>
        <time>2013-09-01T09:20:21Z</time>
      </trkpt>
      <trkpt lat="45.51398" lon="2.9285">
        <ele>1020.12</ele>
        <time>2013-09-01T09:24:11Z</time>
      </trkpt>
      <trkpt lat="45.51466" lon="2.92897">
        <ele>1016.31</ele>
        <time>2013-09-01T09:24:24Z</time>
      </trkpt>
      <trkpt lat="45.51524" lon="2.92962">
        <ele>1015.36</ele>
        <time>2013-09-01T09:24:39Z</time>
      </trkpt>
      <trkpt lat="45.51543" lon="2.93065">
        <ele>1016.51</ele>
        <time>2013-09-01T09:25:03Z</time>
      </trkpt>
      <trkpt lat="45.51557" lon="2.93168">
        <ele>1017.5</ele>
        <time>2013-09-01T09:25:24Z</time>
      </trkpt>
      <trkpt lat="45.51576" lon="2.93271">
        <ele>1020.64</ele>
        <time>2013-09-01T09:25:45Z</time>
      </trkpt>
      <trkpt lat="45.5164" lon="2.93318">
        <ele>1030.18</ele>
        <time>2013-09-01T09:26:05Z</time>
      </trkpt>
      <trkpt lat="45.517" lon="2.9338">
        <ele>1038.32</ele>
        <time>2013-09-01T09:26:22Z</time>
      </trkpt>
      <trkpt lat="45.51766" lon="2.93425">
        <ele>1040.49</ele>
        <time>2013-09-01T09:26:41Z</time>
      </trkpt>
      <trkpt lat="45.51837" lon="2.93417">
        <ele>1040.47</ele>
        <time>2013-09-01T09:27:08Z</time>
      </trkpt>
      <trkpt lat="45.51918" lon="2.93412">
        <ele>1045.35</ele>
        <time>2013-09-01T09:27:44Z</time>
      </trkpt>
      <trkpt lat="45.51989" lon="2.93444">
        <ele>1052.52</ele>
        <time>2013-09-01T09:28:25Z</time>
      </trkpt>
      <trkpt lat="45.52063" lon="2.93464">
        <ele>1058.45</ele>
        <time>2013-09-01T09:29:03Z</time>
      </trkpt>
      <trkpt lat="45.52119" lon="2.93397">
        <ele>1063.75</ele>
        <time>2013-09-01T09:29:36Z</time>
      </trkpt>
      <trkpt lat="45.52188" lon="2.93429">
        <ele>1072.8</ele>
        <time>2013-09-01T09:29:54Z</time>
      </trkpt>
      <trkpt lat="45.52239" lon="2.93504">
        <ele>1076.29</ele>
        <time>2013-09-01T09:30:11Z</time>
      </trkpt>
      <trkpt lat="45.52293" lon="2.93573">
        <ele>1080.08</ele>
        <time>2013-09-01T09:30:32Z</time>
      </trkpt>
      <trkpt lat="45.52364" lon="2.93612">
        <ele>1083.73</ele>
        <time>2013-09-01T09:30:51Z</time>
      </trkpt>
      <trkpt lat="45.52438" lon="2.93627">
        <ele>1087.28</ele>
        <time>2013-09-01T09:31:08Z</time>
      </trkpt>
      <trkpt lat="45.52512" lon="2.93627">
        <ele>1087.5</ele>
        <time>2013-09-01T09:31:19Z</time>
      </trkpt>
      <trkpt lat="45.5259" lon="2.93633">
        <ele>1087.51</ele>
        <time>2013-09-01T09:31:28Z</time>
      </trkpt>
      <trkpt lat="45.52667" lon="2.93625">
        <ele>1086.25</ele>
        <time>2013-09-01T09:31:39Z</time>
      </trkpt>
      <trkpt lat="45.5274" lon="2.9359">
        <ele>1083.24</ele>
        <time>2013-09-01T09:31:48Z</time>
      </trkpt>
      <trkpt lat="45.52812" lon="2.9362">
        <ele>1081.84</ele>
        <time>2013-09-01T09:32:01Z</time>
      </trkpt>
      <trkpt lat="45.52887" lon="2.93629">
        <ele>1080.53</ele>
        <time>2013-09-01T09:32:16Z</time>
      </trkpt>
      <trkpt lat="45.52961" lon="2.93644">
        <ele>1081.74</ele>
        <time>2013-09-01T09:32:33Z</time>
      </trkpt>
      <trkpt lat="45.53034" lon="2.93648">
        <ele>1084.88</ele>
        <time>2013-09-01T09:32:51Z</time>
      </trkpt>
      <trkpt lat="45.53109" lon="2.93653">
        <ele>1086.87</ele>
        <time>2013-09-01T09:33:07Z</time>
      </trkpt>
      <trkpt lat="45.53182" lon="2.9368">
        <ele>1088.27</ele>
        <time>2013-09-01T09:33:24Z</time>
      </trkpt>
      <trkpt lat="45.53254" lon="2.93713">
        <ele>1090.15</ele>
        <time>2013-09-01T09:33:43Z</time>
      </trkpt>
      <trkpt lat="45.53329" lon="2.93725">
        <ele>1091.46</ele>
        <time>2013-09-01T09:34:00Z</time>
      </trkpt>
      <trkpt lat="45.53402" lon="2.93736">
        <ele>1091.51</ele>
        <time>2013-09-01T09:34:14Z</time>
      </trkpt>
      <trkpt lat="45.5348" lon="2.93734">
        <ele>1092.43</ele>
        <time>2013-09-01T09:34:26Z</time>
      </trkpt>
      <trkpt lat="45.53559" lon="2.93719">
        <ele>1092.5</ele>
        <time>2013-09-01T09:34:35Z</time>
      </trkpt>
      <trkpt lat="45.53638" lon="2.93704">
        <ele>1091.2</ele>
        <time>2013-09-01T09:34:43Z</time>
      </trkpt>
      <trkpt lat="45.53716" lon="2.93678">
        <ele>1089.38</ele>
        <time>2013-09-01T09:34:51Z</time>
      </trkpt>
      <trkpt lat="45.53793" lon="2.93655">
        <ele>1088.14</ele>
        <time>2013-09-01T09:35:00Z</time>
      </trkpt>
      <trkpt lat="45.53869" lon="2.93635">
        <ele>1086.25</ele>
        <time>2013-09-01T09:35:09Z</time>
      </trkpt>
      <trkpt lat="45.53939" lon="2.93599">
        <ele>1084.38</ele>
        <time>2013-09-01T09:35:17Z</time>
      </trkpt>
      <trkpt lat="45.54016" lon="2.93575">
        <ele>1080.75</ele>
        <time>2013-09-01T09:35:25Z</time>
      </trkpt>
      <trkpt lat="45.54074" lon="2.9364">
        <ele>1068.84</ele>
        <time>2013-09-01T09:35:46Z</time>
      </trkpt>
      <trkpt lat="45.54089" lon="2.93537">
        <ele>1027.78</ele>
        <time>2013-09-01T09:36:16Z</time>
      </trkpt>
      <trkpt lat="45.541" lon="2.93434">
        <ele>1009.11</ele>
        <time>2013-09-01T09:36:28Z</time>
      </trkpt>
      <trkpt lat="45.54166" lon="2.93391">
        <ele>1021.51</ele>
        <time>2013-09-01T09:50:37Z</time>
      </trkpt>
      <trkpt lat="45.54203" lon="2.93479">
        <ele>1023.58</ele>
        <time>2013-09-01T09:54:19Z</time>
      </trkpt>
      <trkpt lat="45.54233" lon="2.93573">
        <ele>1019.72</ele>
        <time>2013-09-01T09:54:47Z</time>
      </trkpt>
      <trkpt lat="45.54271" lon="2.93661">
        <ele>1018.09</ele>
        <time>2013-09-01T09:55:18Z</time>
      </trkpt>
      <trkpt lat="45.54323" lon="2.93734">
        <ele>1020.37</ele>
        <time>2013-09-01T09:55:45Z</time>
      </trkpt>
      <trkpt lat="45.54372" lon="2.93813">
        <ele>1025.28</ele>
        <time>2013-09-01T09:56:15Z</time>
      </trkpt>
      <trkpt lat="45.54437" lon="2.93859">
        <ele>1032.07</ele>
        <time>2013-09-01T09:56:56Z</time>
      </trkpt>
      <trkpt lat="45.54512" lon="2.93865">
        <ele>1037.38</ele>
        <time>2013-09-01T09:57:13Z</time>
      </trkpt>
      <trkpt lat="45.54585" lon="2.93861">
        <ele>1038.91</ele>
        <time>2013-09-01T09:57:22Z</time>
      </trkpt>
      <trkpt lat="45.54655" lon="2.93835">
        <ele>1034.58</ele>
        <time>2013-09-01T09:57:40Z</time>
      </trkpt>
      <trkpt lat="45.54725" lon="2.93807">
        <ele>1035.74</ele>
        <time>2013-09-01T09:58:04Z</time>
      </trkpt>
      <trkpt lat="45.54798" lon="2.93783">
        <ele>1037.91</ele>
        <time>2013-09-01T09:58:27Z</time>
      </trkpt>
      <trkpt lat="45.54874" lon="2.93779">
        <ele>1040.65</ele>
        <time>2013-09-01T09:58:40Z</time>
      </trkpt>
      <trkpt lat="45.54951" lon="2.93762">
        <ele>1040.58</ele>
        <time>2013-09-01T09:58:49Z</time>
      </trkpt>
      <trkpt lat="45.55024" lon="2.93747">
        <ele>1039.61</ele>
        <time>2013-09-01T09:58:58Z</time>
      </trkpt>
      <trkpt lat="45.55089" lon="2.93805">
        <ele>1036.99</ele>
        <time>2013-09-01T09:59:08Z</time>
      </trkpt>
      <trkpt lat="45.55137" lon="2.93891">
        <ele>1031.92</ele>
        <time>2013-09-01T09:59:20Z</time>
      </trkpt>
      <trkpt lat="45.55188" lon="2.93966">
        <ele>1031.08</ele>
        <time>2013-09-01T09:59:32Z</time>
      </trkpt>
      <trkpt lat="45.55264" lon="2.93994">
        <ele>1028.47</ele>
        <time>2013-09-01T09:59:43Z</time>
      </trkpt>
      <trkpt lat="45.55331" lon="2.94058">
        <ele>1017.02</ele>
        <time>2013-09-01T10:00:12Z</time>
      </trkpt>
      <trkpt lat="45.55396" lon="2.94107">
        <ele>1014.54</ele>
        <time>2013-09-01T10:00:20Z</time>
      </trkpt>
      <trkpt lat="45.55434" lon="2.94202">
        <ele>1012.82</ele>
        <time>2013-09-01T10:00:29Z</time>
      </trkpt>
      <trkpt lat="45.55476" lon="2.94296">
        <ele>1008.37</ele>
        <time>2013-09-01T10:00:39Z</time>
      </trkpt>
      <trkpt lat="45.5553" lon="2.94367">
        <ele>1004.51</ele>
        <time>2013-09-01T10:00:49Z</time>
      </trkpt>
      <trkpt lat="45.55582" lon="2.94453">
        <ele>1001.96</ele>
        <time>2013-09-01T10:00:58Z</time>
      </trkpt>
      <trkpt lat="45.55624" lon="2.94545">
        <ele>998.35</ele>
        <time>2013-09-01T10:01:08Z</time>
      </trkpt>
      <trkpt lat="45.55672" lon="2.94622">
        <ele>992.8</ele>
        <time>2013-09-01T10:01:19Z</time>
      </trkpt>
      <trkpt lat="45.55677" lon="2.94725">
        <ele>989.35</ele>
        <time>2013-09-01T10:01:39Z</time>
      </trkpt>
      <trkpt lat="45.55755" lon="2.94745">
        <ele>976.52</ele>
        <time>2013-09-01T10:01:56Z</time>
      </trkpt>
      <trkpt lat="45.55825" lon="2.94766">
        <ele>963.98</ele>
        <time>2013-09-01T10:02:15Z</time>
      </trkpt>
      <trkpt lat="45.55882" lon="2.94837">
        <ele>951.49</ele>
        <time>2013-09-01T10:02:28Z</time>
      </trkpt>
      <trkpt lat="45.55952" lon="2.94876">
        <ele>946.88</ele>
        <time>2013-09-01T10:02:38Z</time>
      </trkpt>
      <trkpt lat="45.55978" lon="2.94972">
        <ele>943.61</ele>
        <time>2013-09-01T10:02:50Z</time>
      </trkpt>
      <trkpt lat="45.55991" lon="2.95073">
        <ele>941.61</ele>
        <time>2013-09-01T10:03:17Z</time>
      </trkpt>
      <trkpt lat="45.5599" lon="2.95182">
        <ele>943.65</ele>
        <time>2013-09-01T10:04:03Z</time>
      </trkpt>
      <trkpt lat="45.56058" lon="2.95142">
        <ele>948.32</ele>
        <time>2013-09-01T10:04:38Z</time>
      </trkpt>
      <trkpt lat="45.56132" lon="2.95155">
        <ele>950.41</ele>
        <time>2013-09-01T10:05:10Z</time>
      </trkpt>
      <trkpt lat="45.56195" lon="2.95208">
        <ele>956.51</ele>
        <time>2013-09-01T10:05:53Z</time>
      </trkpt>
      <trkpt lat="45.56261" lon="2.95251">
        <ele>972.34</ele>
        <time>2013-09-01T10:06:51Z</time>
      </trkpt>
      <trkpt lat="45.5633" lon="2.95288">
        <ele>979.21</ele>
        <time>2013-09-01T10:07:26Z</time>
      </trkpt>
      <trkpt lat="45.56401" lon="2.95298">
        <ele>987.89</ele>
        <time>2013-09-01T10:07:56Z</time>
      </trkpt>
      <trkpt lat="45.56473" lon="2.95281">
        <ele>996.45</ele>
        <time>2013-09-01T10:08:29Z</time>
      </trkpt>
      <trkpt lat="45.56542" lon="2.95313">
        <ele>1001.36</ele>
        <time>2013-09-01T10:08:59Z</time>
      </trkpt>
      <trkpt lat="45.56579" lon="2.9541">
        <ele>1003.69</ele>
        <time>2013-09-01T10:09:19Z</time>
      </trkpt>
      <trkpt lat="45.56572" lon="2.95515">
        <ele>1001.16</ele>
        <time>2013-09-01T10:09:34Z</time>
      </trkpt>
      <trkpt lat="45.56599" lon="2.95614">
        <ele>1001.38</ele>
        <time>2013-09-01T10:09:54Z</time>
      </trkpt>
      <trkpt lat="45.56659" lon="2.95678">
        <ele>1003.49</ele>
        <time>2013-09-01T10:10:05Z</time>
      </trkpt>
      <trkpt lat="45.56671" lon="2.95788">
        <ele>1007.63</ele>
        <time>2013-09-01T10:10:17Z</time>
      </trkpt>
      <trkpt lat="45.56658" lon="2.95893">
        <ele>1008.5</ele>
        <time>2013-09-01T10:10:34Z</time>
      </trkpt>
      <trkpt lat="45.56644" lon="2.95996">
        <ele>1004.29</ele>
        <time>2013-09-01T10:10:50Z</time>
      </trkpt>
      <trkpt lat="45.56629" lon="2.96109">
        <ele>1000.43</ele>
        <time>2013-09-01T10:11:14Z</time>
      </trkpt>
      <trkpt lat="45.56614" lon="2.96217">
        <ele>1007.01</ele>
        <time>2013-09-01T10:11:32Z</time>
      </trkpt>
      <trkpt lat="45.5658" lon="2.96309">
        <ele>1009.73</ele>
        <time>2013-09-01T10:11:51Z</time>
      </trkpt>
      <trkpt lat="45.56514" lon="2.96369">
        <ele>1008.47</ele>
        <time>2013-09-01T10:12:30Z</time>
      </trkpt>
      <trkpt lat="45.56459" lon="2.96442">
        <ele>1007.68</ele>
        <time>2013-09-01T10:12:58Z</time>
      </trkpt>
      <trkpt lat="45.56408" lon="2.96515">
        <ele>1001.84</ele>
        <time>2013-09-01T10:13:07Z</time>
      </trkpt>
      <trkpt lat="45.56365" lon="2.96603">
        <ele>997.67</ele>
        <time>2013-09-01T10:13:16Z</time>
      </trkpt>
      <trkpt lat="45.56306" lon="2.96672">
        <ele>999.38</ele>
        <time>2013-09-01T10:13:28Z</time>
      </trkpt>
      <trkpt lat="45.56259" lon="2.96755">
        <ele>1000.4</ele>
        <time>2013-09-01T10:13:38Z</time>
      </trkpt>
      <trkpt lat="45.56213" lon="2.96845">
        <ele>999.06</ele>
        <time>2013-09-01T10:13:49Z</time>
      </trkpt>
      <trkpt lat="45.5615" lon="2.96899">
        <ele>997.53</ele>
        <time>2013-09-01T10:14:04Z</time>
      </trkpt>
      <trkpt lat="45.56085" lon="2.96839">
        <ele>996.5</ele>
        <time>2013-09-01T10:14:12Z</time>
      </trkpt>
      <trkpt lat="45.561" lon="2.96942">
        <ele>980.23</ele>
        <time>2013-09-01T10:15:01Z</time>
      </trkpt>
      <trkpt lat="45.56101" lon="2.97054">
        <ele>963.83</ele>
        <time>2013-09-01T10:15:11Z</time>
      </trkpt>
      <trkpt lat="45.56111" lon="2.97163">
        <ele>956.53</ele>
        <time>2013-09-01T10:15:21Z</time>
      </trkpt>
      <trkpt lat="45.56117" lon="2.97266">
        <ele>953.65</ele>
        <time>2013-09-01T10:15:30Z</time>
      </trkpt>
      <trkpt lat="45.56173" lon="2.97199">
        <ele>950.51</ele>
        <time>2013-09-01T10:16:10Z</time>
      </trkpt>
      <trkpt lat="45.56229" lon="2.97129">
        <ele>949.93</ele>
        <time>2013-09-01T10:16:17Z</time>
      </trkpt>
      <trkpt lat="45.56288" lon="2.97058">
        <ele>945.16</ele>
        <time>2013-09-01T10:16:24Z</time>
      </trkpt>
      <trkpt lat="45.5633" lon="2.96966">
        <ele>939.31</ele>
        <time>2013-09-01T10:16:32Z</time>
      </trkpt>
      <trkpt lat="45.56374" lon="2.96873">
        <ele>935.55</ele>
        <time>2013-09-01T10:16:42Z</time>
      </trkpt>
      <trkpt lat="45.56432" lon="2.96811">
        <ele>934.34</ele>
        <time>2013-09-01T10:16:51Z</time>
      </trkpt>
      <trkpt lat="45.56498" lon="2.96753">
        <ele>933.13</ele>
        <time>2013-09-01T10:17:00Z</time>
      </trkpt>
      <trkpt lat="45.56574" lon="2.96717">
        <ele>926.83</ele>
        <time>2013-09-01T10:17:08Z</time>
      </trkpt>
      <trkpt lat="45.56645" lon="2.96685">
        <ele>920.59</ele>
        <time>2013-09-01T10:17:18Z</time>
      </trkpt>
      <trkpt lat="45.56721" lon="2.96674">
        <ele>908.22</ele>
        <time>2013-09-01T10:17:38Z</time>
      </trkpt>
      <trkpt lat="45.56792" lon="2.96642">
        <ele>895.12</ele>
        <time>2013-09-01T10:18:04Z</time>
      </trkpt>
      <trkpt lat="45.56861" lon="2.96588">
        <ele>881.9</ele>
        <time>2013-09-01T10:18:38Z</time>
      </trkpt>
      <trkpt lat="45.56907" lon="2.96502">
        <ele>877.1</ele>
        <time>2013-09-01T10:19:00Z</time>
      </trkpt>
      <trkpt lat="45.56919" lon="2.96395">
        <ele>862.46</ele>
        <time>2013-09-01T10:19:36Z</time>
      </trkpt>
      <trkpt lat="45.56944" lon="2.96296">
        <ele>854.05</ele>
        <time>2013-09-01T10:20:01Z</time>
      </trkpt>
      <trkpt lat="45.56998" lon="2.96221">
        <ele>851.32</ele>
        <time>2013-09-01T10:20:26Z</time>
      </trkpt>
      <trkpt lat="45.56992" lon="2.96114">
        <ele>847.56</ele>
        <time>2013-09-01T10:20:44Z</time>
      </trkpt>
      <trkpt lat="45.57027" lon="2.96019">
        <ele>841.83</ele>
        <time>2013-09-01T10:21:03Z</time>
      </trkpt>
      <trkpt lat="45.57065" lon="2.95927">
        <ele>839.19</ele>
        <time>2013-09-01T10:21:19Z</time>
      </trkpt>
      <trkpt lat="45.57107" lon="2.95839">
        <ele>838.3</ele>
        <time>2013-09-01T10:21:32Z</time>
      </trkpt>
      <trkpt lat="45.57134" lon="2.95743">
        <ele>840.94</ele>
        <time>2013-09-01T10:21:44Z</time>
      </trkpt>
      <trkpt lat="45.57109" lon="2.95646">
        <ele>815.15</ele>
        <time>2013-09-01T10:21:52Z</time>
      </trkpt>
      <trkpt lat="45.57139" lon="2.95552">
        <ele>821.68</ele>
        <time>2013-09-01T10:22:12Z</time>
      </trkpt>
      <trkpt lat="45.57188" lon="2.95627">
        <ele>811.68</ele>
        <time>2013-09-01T10:22:32Z</time>
      </trkpt>
      <trkpt lat="45.57246" lon="2.95691">
        <ele>810.51</ele>
        <time>2013-09-01T10:22:53Z</time>
      </trkpt>
      <trkpt lat="45.57318" lon="2.9568">
        <ele>805.8</ele>
        <time>2013-09-01T10:23:12Z</time>
      </trkpt>
      <trkpt lat="45.57387" lon="2.95655">
        <ele>801.09</ele>
        <time>2013-09-01T10:23:34Z</time>
      </trkpt>
      <trkpt lat="45.5746" lon="2.95667">
        <ele>798.56</ele>
        <time>2013-09-01T10:23:48Z</time>
      </trkpt>
      <trkpt lat="45.57537" lon="2.9567">
        <ele>798.78</ele>
        <time>2013-09-01T10:24:01Z</time>
      </trkpt>
      <trkpt lat="45.57613" lon="2.95682">
        <ele>800.49</ele>
        <time>2013-09-01T10:24:26Z</time>
      </trkpt>
      <trkpt lat="45.57684" lon="2.95712">
        <ele>805.92</ele>
        <time>2013-09-01T10:24:45Z</time>
      </trkpt>
      <trkpt lat="45.57686" lon="2.9582">
        <ele>804.64</ele>
        <time>2013-09-01T10:25:09Z</time>
      </trkpt>
      <trkpt lat="45.57683" lon="2.95923">
        <ele>806.12</ele>
        <time>2013-09-01T10:25:28Z</time>
      </trkpt>
      <trkpt lat="45.57704" lon="2.96024">
        <ele>806.51</ele>
        <time>2013-09-01T10:25:51Z</time>
      </trkpt>
      <trkpt lat="45.57725" lon="2.96124">
        <ele>803.32</ele>
        <time>2013-09-01T10:26:05Z</time>
      </trkpt>
      <trkpt lat="45.5775" lon="2.96227">
        <ele>797.42</ele>
        <time>2013-09-01T10:26:18Z</time>
      </trkpt>
      <trkpt lat="45.57791" lon="2.96318">
        <ele>793.78</ele>
        <time>2013-09-01T10:26:29Z</time>
      </trkpt>
      <trkpt lat="45.57836" lon="2.96406">
        <ele>793.52</ele>
        <time>2013-09-01T10:26:40Z</time>
      </trkpt>
      <trkpt lat="45.57835" lon="2.96515">
        <ele>792.06</ele>
        <time>2013-09-01T10:26:51Z</time>
      </trkpt>
      <trkpt lat="45.57839" lon="2.96622">
        <ele>789.61</ele>
        <time>2013-09-01T10:27:03Z</time>
      </trkpt>
      <trkpt lat="45.57872" lon="2.96719">
        <ele>788.39</ele>
        <time>2013-09-01T10:27:15Z</time>
      </trkpt>
      <trkpt lat="45.57895" lon="2.96824">
        <ele>783.09</ele>
        <time>2013-09-01T10:27:26Z</time>
      </trkpt>
      <trkpt lat="45.57967" lon="2.96863">
        <ele>779.48</ele>
        <time>2013-09-01T10:27:40Z</time>
      </trkpt>
      <trkpt lat="45.58034" lon="2.96901">
        <ele>779.51</ele>
        <time>2013-09-01T10:27:54Z</time>
      </trkpt>
      <trkpt lat="45.58072" lon="2.96813">
        <ele>782.07</ele>
        <time>2013-09-01T10:28:15Z</time>
      </trkpt>
      <trkpt lat="45.58119" lon="2.96723">
        <ele>782.51</ele>
        <time>2013-09-01T10:28:41Z</time>
      </trkpt>
      <trkpt lat="45.58187" lon="2.96669">
        <ele>788.85</ele>
        <time>2013-09-01T10:29:40Z</time>
      </trkpt>
      <trkpt lat="45.58252" lon="2.96622">
        <ele>802.67</ele>
        <time>2013-09-01T10:30:41Z</time>
      </trkpt>
      <trkpt lat="45.58317" lon="2.96573">
        <ele>812.31</ele>
        <time>2013-09-01T10:31:32Z</time>
      </trkpt>
      <trkpt lat="45.58386" lon="2.96543">
        <ele>818.6</ele>
        <time>2013-09-01T10:32:28Z</time>
      </trkpt>
      <trkpt lat="45.58465" lon="2.96498">
        <ele>824.09</ele>
        <time>2013-09-01T10:32:48Z</time>
      </trkpt>
      <trkpt lat="45.58537" lon="2.96468">
        <ele>821.7</ele>
        <time>2013-09-01T10:32:53Z</time>
      </trkpt>
      <trkpt lat="45.58608" lon="2.96446">
        <ele>817.96</ele>
        <time>2013-09-01T10:32:59Z</time>
      </trkpt>
      <trkpt lat="45.58682" lon="2.96455">
        <ele>814.71</ele>
        <time>2013-09-01T10:33:10Z</time>
      </trkpt>
      <trkpt lat="45.5876" lon="2.96416">
        <ele>813.84</ele>
        <time>2013-09-01T10:33:19Z</time>
      </trkpt>
      <trkpt lat="45.58823" lon="2.96363">
        <ele>811.49</ele>
        <time>2013-09-01T10:33:26Z</time>
      </trkpt>
      <trkpt lat="45.58859" lon="2.96273">
        <ele>806.2</ele>
        <time>2013-09-01T10:33:38Z</time>
      </trkpt>
      <trkpt lat="45.58932" lon="2.96296">
        <ele>804.82</ele>
        <time>2013-09-01T10:33:49Z</time>
      </trkpt>
      <trkpt lat="45.58988" lon="2.96363">
        <ele>802.9</ele>
        <time>2013-09-01T10:33:59Z</time>
      </trkpt>
      <trkpt lat="45.5905" lon="2.96416">
        <ele>799.26</ele>
        <time>2013-09-01T10:34:31Z</time>
      </trkpt>
      <trkpt lat="45.5906" lon="2.96519">
        <ele>801.7</ele>
        <time>2013-09-01T10:35:14Z</time>
      </trkpt>
      <trkpt lat="45.59094" lon="2.96609">
        <ele>808.29</ele>
        <time>2013-09-01T10:35:55Z</time>
      </trkpt>
      <trkpt lat="45.59171" lon="2.96609">
        <ele>821.67</ele>
        <time>2013-09-01T10:37:10Z</time>
      </trkpt>
      <trkpt lat="45.59237" lon="2.96566">
        <ele>829.98</ele>
        <time>2013-09-01T10:37:44Z</time>
      </trkpt>
      <trkpt lat="45.59289" lon="2.96642">
        <ele>840.82</ele>
        <time>2013-09-01T10:38:27Z</time>
      </trkpt>
      <trkpt lat="45.59326" lon="2.9673">
        <ele>850.89</ele>
        <time>2013-09-01T10:39:08Z</time>
      </trkpt>
      <trkpt lat="45.59332" lon="2.96833">
        <ele>859.68</ele>
        <time>2013-09-01T10:39:40Z</time>
      </trkpt>
      <trkpt lat="45.59361" lon="2.96931">
        <ele>865.43</ele>
        <time>2013-09-01T10:40:00Z</time>
      </trkpt>
      <trkpt lat="45.59389" lon="2.9703">
        <ele>868.21</ele>
        <time>2013-09-01T10:40:20Z</time>
      </trkpt>
      <trkpt lat="45.59392" lon="2.97137">
        <ele>875.32</ele>
        <time>2013-09-01T10:40:37Z</time>
      </trkpt>
      <trkpt lat="45.59421" lon="2.97232">
        <ele>877.2</ele>
        <time>2013-09-01T10:40:55Z</time>
      </trkpt>
      <trkpt lat="45.59481" lon="2.9729">
        <ele>877.43</ele>
        <time>2013-09-01T10:41:12Z</time>
      </trkpt>
      <trkpt lat="45.5954" lon="2.97358">
        <ele>876.51</ele>
        <time>2013-09-01T10:41:31Z</time>
      </trkpt>
      <trkpt lat="45.59577" lon="2.97451">
        <ele>877.76</ele>
        <time>2013-09-01T10:41:54Z</time>
      </trkpt>
      <trkpt lat="45.59643" lon="2.97506">
        <ele>879.73</ele>
        <time>2013-09-01T10:42:33Z</time>
      </trkpt>
      <trkpt lat="45.59676" lon="2.97607">
        <ele>884.24</ele>
        <time>2013-09-01T10:43:09Z</time>
      </trkpt>
      <trkpt lat="45.59676" lon="2.9771">
        <ele>890.69</ele>
        <time>2013-09-01T10:43:42Z</time>
      </trkpt>
      <trkpt lat="45.59685" lon="2.97813">
        <ele>899.67</ele>
        <time>2013-09-01T10:44:19Z</time>
      </trkpt>
      <trkpt lat="45.59683" lon="2.97916">
        <ele>909.05</ele>
        <time>2013-09-01T10:44:55Z</time>
      </trkpt>
      <trkpt lat="45.59751" lon="2.97959">
        <ele>919.83</ele>
        <time>2013-09-01T10:45:49Z</time>
      </trkpt>
      <trkpt lat="45.59819" lon="2.97998">
        <ele>926.77</ele>
        <time>2013-09-01T10:46:28Z</time>
      </trkpt>
      <trkpt lat="45.59884" lon="2.98041">
        <ele>932.51</ele>
        <time>2013-09-01T10:46:54Z</time>
      </trkpt>
      <trkpt lat="45.59954" lon="2.98069">
        <ele>936.6</ele>
        <time>2013-09-01T10:47:17Z</time>
      </trkpt>
      <trkpt lat="45.60021" lon="2.98109">
        <ele>940.39</ele>
        <time>2013-09-01T10:47:44Z</time>
      </trkpt>
      <trkpt lat="45.60094" lon="2.98133">
        <ele>946.26</ele>
        <time>2013-09-01T10:48:06Z</time>
      </trkpt>
      <trkpt lat="45.60162" lon="2.9818">
        <ele>948.23</ele>
        <time>2013-09-01T10:48:30Z</time>
      </trkpt>
      <trkpt lat="45.60238" lon="2.98178">
        <ele>946.76</ele>
        <time>2013-09-01T10:48:43Z</time>
      </trkpt>
      <trkpt lat="45.60299" lon="2.98111">
        <ele>944.63</ele>
        <time>2013-09-01T10:48:54Z</time>
      </trkpt>
      <trkpt lat="45.60342" lon="2.98028">
        <ele>940.56</ele>
        <time>2013-09-01T10:49:01Z</time>
      </trkpt>
      <trkpt lat="45.6039" lon="2.97938">
        <ele>938.14</ele>
        <time>2013-09-01T10:49:09Z</time>
      </trkpt>
      <trkpt lat="45.60442" lon="2.9785">
        <ele>935.94</ele>
        <time>2013-09-01T10:49:16Z</time>
      </trkpt>
      <trkpt lat="45.60474" lon="2.97747">
        <ele>931.56</ele>
        <time>2013-09-01T10:49:23Z</time>
      </trkpt>
      <trkpt lat="45.60511" lon="2.97644">
        <ele>927.08</ele>
        <time>2013-09-01T10:49:30Z</time>
      </trkpt>
      <trkpt lat="45.6057" lon="2.97577">
        <ele>918.92</ele>
        <time>2013-09-01T10:49:46Z</time>
      </trkpt>
      <trkpt lat="45.6063" lon="2.97513">
        <ele>912.06</ele>
        <time>2013-09-01T10:50:16Z</time>
      </trkpt>
      <trkpt lat="45.60698" lon="2.97474">
        <ele>906.85</ele>
        <time>2013-09-01T10:50:40Z</time>
      </trkpt>
      <trkpt lat="45.60756" lon="2.97405">
        <ele>901.82</ele>
        <time>2013-09-01T10:51:02Z</time>
      </trkpt>
      <trkpt lat="45.60828" lon="2.97356">
        <ele>901.26</ele>
        <time>2013-09-01T10:51:36Z</time>
      </trkpt>
      <trkpt lat="45.60882" lon="2.97287">
        <ele>903.4</ele>
        <time>2013-09-01T10:52:11Z</time>
      </trkpt>
      <trkpt lat="45.60939" lon="2.97223">
        <ele>904.75</ele>
        <time>2013-09-01T10:52:56Z</time>
      </trkpt>
      <trkpt lat="45.60988" lon="2.97146">
        <ele>903.51</ele>
        <time>2013-09-01T10:53:37Z</time>
      </trkpt>
      <trkpt lat="45.61045" lon="2.97079">
        <ele>909.48</ele>
        <time>2013-09-01T10:54:17Z</time>
      </trkpt>
      <trkpt lat="45.61094" lon="2.97002">
        <ele>923.05</ele>
        <time>2013-09-01T10:55:04Z</time>
      </trkpt>
      <trkpt lat="45.61168" lon="2.97006">
        <ele>956.43</ele>
        <time>2013-09-01T10:56:33Z</time>
      </trkpt>
      <trkpt lat="45.61238" lon="2.96944">
        <ele>955.8</ele>
        <time>2013-09-01T10:56:42Z</time>
      </trkpt>
      <trkpt lat="45.61313" lon="2.96933">
        <ele>952.37</ele>
        <time>2013-09-01T10:56:52Z</time>
      </trkpt>
      <trkpt lat="45.61385" lon="2.96912">
        <ele>949.95</ele>
        <time>2013-09-01T10:57:13Z</time>
      </trkpt>
      <trkpt lat="45.61444" lon="2.96848">
        <ele>949.51</ele>
        <time>2013-09-01T10:57:33Z</time>
      </trkpt>
      <trkpt lat="45.61504" lon="2.9679">
        <ele>950.94</ele>
        <time>2013-09-01T10:57:55Z</time>
      </trkpt>
      <trkpt lat="45.61577" lon="2.96796">
        <ele>958.5</ele>
        <time>2013-09-01T10:58:13Z</time>
      </trkpt>
      <trkpt lat="45.61651" lon="2.96792">
        <ele>965.06</ele>
        <time>2013-09-01T10:58:29Z</time>
      </trkpt>
      <trkpt lat="45.61725" lon="2.96779">
        <ele>965.5</ele>
        <time>2013-09-01T10:58:45Z</time>
      </trkpt>
      <trkpt lat="45.61799" lon="2.96807">
        <ele>965.51</ele>
        <time>2013-09-01T10:59:01Z</time>
      </trkpt>
      <trkpt lat="45.61873" lon="2.96792">
        <ele>965.51</ele>
        <time>2013-09-01T10:59:18Z</time>
      </trkpt>
      <trkpt lat="45.61938" lon="2.96745">
        <ele>967.22</ele>
        <time>2013-09-01T10:59:36Z</time>
      </trkpt>
      <trkpt lat="45.62011" lon="2.96747">
        <ele>969.43</ele>
        <time>2013-09-01T10:59:58Z</time>
      </trkpt>
      <trkpt lat="45.62082" lon="2.96753">
        <ele>971.89</ele>
        <time>2013-09-01T11:00:20Z</time>
      </trkpt>
      <trkpt lat="45.62153" lon="2.96723">
        <ele>974.86</ele>
        <time>2013-09-01T11:00:43Z</time>
      </trkpt>
      <trkpt lat="45.6221" lon="2.96657">
        <ele>978.11</ele>
        <time>2013-09-01T11:01:06Z</time>
      </trkpt>
      <trkpt lat="45.62269" lon="2.96592">
        <ele>984.21</ele>
        <time>2013-09-01T11:01:22Z</time>
      </trkpt>
      <trkpt lat="45.6233" lon="2.96526">
        <ele>983.79</ele>
        <time>2013-09-01T11:01:38Z</time>
      </trkpt>
      <trkpt lat="45.62372" lon="2.96442">
        <ele>984.78</ele>
        <time>2013-09-01T11:01:53Z</time>
      </trkpt>
      <trkpt lat="45.62401" lon="2.96343">
        <ele>983.54</ele>
        <time>2013-09-01T11:02:07Z</time>
      </trkpt>
      <trkpt lat="45.62438" lon="2.96247">
        <ele>979.41</ele>
        <time>2013-09-01T11:02:19Z</time>
      </trkpt>
      <trkpt lat="45.62457" lon="2.96146">
        <ele>977.05</ele>
        <time>2013-09-01T11:02:29Z</time>
      </trkpt>
      <trkpt lat="45.62426" lon="2.96047">
        <ele>973</ele>
        <time>2013-09-01T11:02:39Z</time>
      </trkpt>
      <trkpt lat="45.62491" lon="2.96094">
        <ele>959.14</ele>
        <time>2013-09-01T11:02:57Z</time>
      </trkpt>
      <trkpt lat="45.62564" lon="2.96118">
        <ele>952.2</ele>
        <time>2013-09-01T11:03:07Z</time>
      </trkpt>
      <trkpt lat="45.62634" lon="2.96092">
        <ele>943.54</ele>
        <time>2013-09-01T11:03:23Z</time>
      </trkpt>
      <trkpt lat="45.62703" lon="2.96056">
        <ele>932.05</ele>
        <time>2013-09-01T11:03:38Z</time>
      </trkpt>
      <trkpt lat="45.62765" lon="2.96002">
        <ele>931.52</ele>
        <time>2013-09-01T11:03:52Z</time>
      </trkpt>
      <trkpt lat="45.62835" lon="2.95972">
        <ele>928.87</ele>
        <time>2013-09-01T11:04:07Z</time>
      </trkpt>
      <trkpt lat="45.62906" lon="2.95979">
        <ele>931.36</ele>
        <time>2013-09-01T11:04:24Z</time>
      </trkpt>
      <trkpt lat="45.62981" lon="2.95989">
        <ele>933.52</ele>
        <time>2013-09-01T11:04:54Z</time>
      </trkpt>
      <trkpt lat="45.63056" lon="2.95994">
        <ele>944.16</ele>
        <time>2013-09-01T11:05:37Z</time>
      </trkpt>
      <trkpt lat="45.63094" lon="2.95906">
        <ele>947.27</ele>
        <time>2013-09-01T11:06:06Z</time>
      </trkpt>
      <trkpt lat="45.63117" lon="2.95805">
        <ele>952.09</ele>
        <time>2013-09-01T11:06:31Z</time>
      </trkpt>
      <trkpt lat="45.63156" lon="2.95704">
        <ele>958.42</ele>
        <time>2013-09-01T11:07:02Z</time>
      </trkpt>
      <trkpt lat="45.63172" lon="2.95603">
        <ele>967.19</ele>
        <time>2013-09-01T11:07:37Z</time>
      </trkpt>
      <trkpt lat="45.63204" lon="2.95509">
        <ele>976.18</ele>
        <time>2013-09-01T11:08:23Z</time>
      </trkpt>
      <trkpt lat="45.63262" lon="2.95442">
        <ele>983.2</ele>
        <time>2013-09-01T11:09:01Z</time>
      </trkpt>
      <trkpt lat="45.63328" lon="2.95388">
        <ele>987.59</ele>
        <time>2013-09-01T11:09:25Z</time>
      </trkpt>
      <trkpt lat="45.63401" lon="2.95399">
        <ele>992.75</ele>
        <time>2013-09-01T11:09:48Z</time>
      </trkpt>
      <trkpt lat="45.63475" lon="2.95393">
        <ele>996.88</ele>
        <time>2013-09-01T11:10:13Z</time>
      </trkpt>
      <trkpt lat="45.63547" lon="2.95373">
        <ele>1003.35</ele>
        <time>2013-09-01T11:10:30Z</time>
      </trkpt>
      <trkpt lat="45.63621" lon="2.95352">
        <ele>1008.88</ele>
        <time>2013-09-01T11:10:47Z</time>
      </trkpt>
      <trkpt lat="45.63695" lon="2.95333">
        <ele>1009.5</ele>
        <time>2013-09-01T11:11:03Z</time>
      </trkpt>
      <trkpt lat="45.6377" lon="2.95313">
        <ele>1011.24</ele>
        <time>2013-09-01T11:11:19Z</time>
      </trkpt>
      <trkpt lat="45.63819" lon="2.95395">
        <ele>1012.41</ele>
        <time>2013-09-01T11:11:37Z</time>
      </trkpt>
      <trkpt lat="45.63853" lon="2.95489">
        <ele>1012.51</ele>
        <time>2013-09-01T11:11:50Z</time>
      </trkpt>
      <trkpt lat="45.63882" lon="2.95586">
        <ele>1010.93</ele>
        <time>2013-09-01T11:12:02Z</time>
      </trkpt>
      <trkpt lat="45.63905" lon="2.95685">
        <ele>1009.55</ele>
        <time>2013-09-01T11:12:14Z</time>
      </trkpt>
      <trkpt lat="45.63936" lon="2.95781">
        <ele>1007.99</ele>
        <time>2013-09-01T11:12:25Z</time>
      </trkpt>
      <trkpt lat="45.64001" lon="2.95839">
        <ele>1004.68</ele>
        <time>2013-09-01T11:12:45Z</time>
      </trkpt>
      <trkpt lat="45.64075" lon="2.95858">
        <ele>1003.52</ele>
        <time>2013-09-01T11:13:01Z</time>
      </trkpt>
      <trkpt lat="45.64147" lon="2.95888">
        <ele>1001.41</ele>
        <time>2013-09-01T11:13:16Z</time>
      </trkpt>
      <trkpt lat="45.64213" lon="2.95938">
        <ele>1000.51</ele>
        <time>2013-09-01T11:13:34Z</time>
      </trkpt>
      <trkpt lat="45.64271" lon="2.96">
        <ele>1002.4</ele>
        <time>2013-09-01T11:13:59Z</time>
      </trkpt>
      <trkpt lat="45.64331" lon="2.9606">
        <ele>1006.14</ele>
        <time>2013-09-01T11:14:26Z</time>
      </trkpt>
      <trkpt lat="45.6439" lon="2.96122">
        <ele>1009.02</ele>
        <time>2013-09-01T11:14:47Z</time>
      </trkpt>
      <trkpt lat="45.64448" lon="2.96187">
        <ele>1011.88</ele>
        <time>2013-09-01T11:15:09Z</time>
      </trkpt>
      <trkpt lat="45.64507" lon="2.96253">
        <ele>1017.14</ele>
        <time>2013-09-01T11:15:28Z</time>
      </trkpt>
      <trkpt lat="45.64528" lon="2.96352">
        <ele>1018.27</ele>
        <time>2013-09-01T11:15:43Z</time>
      </trkpt>
      <trkpt lat="45.64526" lon="2.96455">
        <ele>1018.07</ele>
        <time>2013-09-01T11:15:57Z</time>
      </trkpt>
      <trkpt lat="45.64524" lon="2.9656">
        <ele>1017.96</ele>
        <time>2013-09-01T11:16:11Z</time>
      </trkpt>
      <trkpt lat="45.6454" lon="2.96667">
        <ele>1015.46</ele>
        <time>2013-09-01T11:16:26Z</time>
      </trkpt>
      <trkpt lat="45.64564" lon="2.96766">
        <ele>1014.53</ele>
        <time>2013-09-01T11:16:40Z</time>
      </trkpt>
      <trkpt lat="45.6459" lon="2.96863">
        <ele>1015.48</ele>
        <time>2013-09-01T11:16:57Z</time>
      </trkpt>
      <trkpt lat="45.6461" lon="2.96966">
        <ele>1015.15</ele>
        <time>2013-09-01T11:17:10Z</time>
      </trkpt>
      <trkpt lat="45.64627" lon="2.97071">
        <ele>1014.1</ele>
        <time>2013-09-01T11:17:21Z</time>
      </trkpt>
      <trkpt lat="45.64705" lon="2.97043">
        <ele>1008.25</ele>
        <time>2013-09-01T11:17:32Z</time>
      </trkpt>
      <trkpt lat="45.64779" lon="2.97017">
        <ele>1002.83</ele>
        <time>2013-09-01T11:17:40Z</time>
      </trkpt>
      <trkpt lat="45.64817" lon="2.96921">
        <ele>995.58</ele>
        <time>2013-09-01T11:17:52Z</time>
      </trkpt>
      <trkpt lat="45.64875" lon="2.96841">
        <ele>994.15</ele>
        <time>2013-09-01T11:18:01Z</time>
      </trkpt>
      <trkpt lat="45.64932" lon="2.96772">
        <ele>991.24</ele>
        <time>2013-09-01T11:18:09Z</time>
      </trkpt>
      <trkpt lat="45.64999" lon="2.96712">
        <ele>985.51</ele>
        <time>2013-09-01T11:18:19Z</time>
      </trkpt>
      <trkpt lat="45.65061" lon="2.9665">
        <ele>979.78</ele>
        <time>2013-09-01T11:18:28Z</time>
      </trkpt>
      <trkpt lat="45.65126" lon="2.96592">
        <ele>974.44</ele>
        <time>2013-09-01T11:18:42Z</time>
      </trkpt>
      <trkpt lat="45.65166" lon="2.96496">
        <ele>968.82</ele>
        <time>2013-09-01T11:18:54Z</time>
      </trkpt>
      <trkpt lat="45.65208" lon="2.96401">
        <ele>964.83</ele>
        <time>2013-09-01T11:19:06Z</time>
      </trkpt>
      <trkpt lat="45.65247" lon="2.96309">
        <ele>961.19</ele>
        <time>2013-09-01T11:19:18Z</time>
      </trkpt>
      <trkpt lat="45.6532" lon="2.96339">
        <ele>955.3</ele>
        <time>2013-09-01T11:19:35Z</time>
      </trkpt>
      <trkpt lat="45.6539" lon="2.96371">
        <ele>950.6</ele>
        <time>2013-09-01T11:19:54Z</time>
      </trkpt>
      <trkpt lat="45.65458" lon="2.96414">
        <ele>950.95</ele>
        <time>2013-09-01T11:20:07Z</time>
      </trkpt>
      <trkpt lat="45.65513" lon="2.96496">
        <ele>950.69</ele>
        <time>2013-09-01T11:20:15Z</time>
      </trkpt>
      <trkpt lat="45.65591" lon="2.96521">
        <ele>949.96</ele>
        <time>2013-09-01T11:20:22Z</time>
      </trkpt>
      <trkpt lat="45.65663" lon="2.96532">
        <ele>946.46</ele>
        <time>2013-09-01T11:20:34Z</time>
      </trkpt>
      <trkpt lat="45.65729" lon="2.96588">
        <ele>942.35</ele>
        <time>2013-09-01T11:20:47Z</time>
      </trkpt>
      <trkpt lat="45.65801" lon="2.96629">
        <ele>940.21</ele>
        <time>2013-09-01T11:20:56Z</time>
      </trkpt>
      <trkpt lat="45.65874" lon="2.96648">
        <ele>935.99</ele>
        <time>2013-09-01T11:21:05Z</time>
      </trkpt>
      <trkpt lat="45.65945" lon="2.967">
        <ele>931.17</ele>
        <time>2013-09-01T11:21:15Z</time>
      </trkpt>
      <trkpt lat="45.66005" lon="2.9676">
        <ele>928.42</ele>
        <time>2013-09-01T11:21:25Z</time>
      </trkpt>
      <trkpt lat="45.66069" lon="2.96824">
        <ele>925.38</ele>
        <time>2013-09-01T11:21:36Z</time>
      </trkpt>
      <trkpt lat="45.66134" lon="2.96888">
        <ele>925.22</ele>
        <time>2013-09-01T11:21:48Z</time>
      </trkpt>
      <trkpt lat="45.662" lon="2.96931">
        <ele>924.68</ele>
        <time>2013-09-01T11:22:01Z</time>
      </trkpt>
      <trkpt lat="45.66269" lon="2.96963">
        <ele>917.01</ele>
        <time>2013-09-01T11:22:13Z</time>
      </trkpt>
      <trkpt lat="45.66308" lon="2.97058">
        <ele>913.84</ele>
        <time>2013-09-01T11:22:23Z</time>
      </trkpt>
      <trkpt lat="45.66357" lon="2.97139">
        <ele>908.65</ele>
        <time>2013-09-01T11:22:33Z</time>
      </trkpt>
      <trkpt lat="45.66399" lon="2.97234">
        <ele>906.07</ele>
        <time>2013-09-01T11:22:43Z</time>
      </trkpt>
      <trkpt lat="45.6643" lon="2.97335">
        <ele>903.42</ele>
        <time>2013-09-01T11:22:53Z</time>
      </trkpt>
      <trkpt lat="45.66462" lon="2.97427">
        <ele>902.31</ele>
        <time>2013-09-01T11:23:04Z</time>
      </trkpt>
      <trkpt lat="45.66483" lon="2.97526">
        <ele>902.5</ele>
        <time>2013-09-01T11:23:17Z</time>
      </trkpt>
      <trkpt lat="45.66503" lon="2.97631">
        <ele>902.07</ele>
        <time>2013-09-01T11:23:28Z</time>
      </trkpt>
      <trkpt lat="45.66523" lon="2.97734">
        <ele>899.71</ele>
        <time>2013-09-01T11:23:37Z</time>
      </trkpt>
      <trkpt lat="45.66543" lon="2.97843">
        <ele>896.02</ele>
        <time>2013-09-01T11:23:46Z</time>
      </trkpt>
      <trkpt lat="45.66561" lon="2.97944">
        <ele>892.28</ele>
        <time>2013-09-01T11:23:54Z</time>
      </trkpt>
      <trkpt lat="45.66582" lon="2.98047">
        <ele>886.62</ele>
        <time>2013-09-01T11:24:04Z</time>
      </trkpt>
    </trkseg>
  </trk>
</gpx>